<?xml version="1.0" encoding="UTF-8" standalone="no" ?>
<gpx xmlns="http://www.topografix.com/GPX/1/1" xmlns:xsi="http://www.w3.org/2001/XMLSchema-instance" xsi:schemaLocation="http://www.topografix.com/GPX/1/1 http://www.topografix.com/GPX/1/1/gpx.xsd" version="1.1" creator="VisuGPX - https://www.visugpx.com">
  <metadata>
    <name>ASLPM marche de Fontenay le 12/1/2015</name>
    <desc><![CDATA[ASLPM
Marche à Fontenay le Comte le 12/1/2015
11,9 Kms]]></desc>
  </metadata>
  <trk>
    <name><![CDATA[Fontenay-le-Comte Course à pied]]></name>
    <trkseg>
      <trkpt lat="46.46165" lon="-0.8119">
        <ele>7.4000000953674</ele>
        <time>2015-01-12T08:11:26.000Z</time>
      </trkpt>
      <trkpt lat="46.46171" lon="-0.812">
        <ele>7.8000001907349</ele>
        <time>2015-01-12T08:11:32.000Z</time>
      </trkpt>
      <trkpt lat="46.4617" lon="-0.81201">
        <ele>7.8000001907349</ele>
        <time>2015-01-12T08:11:33.000Z</time>
      </trkpt>
      <trkpt lat="46.46159" lon="-0.81206">
        <ele>7.8000001907349</ele>
        <time>2015-01-12T08:11:41.000Z</time>
      </trkpt>
      <trkpt lat="46.46142" lon="-0.81208">
        <ele>7.5999999046326</ele>
        <time>2015-01-12T08:11:52.000Z</time>
      </trkpt>
      <trkpt lat="46.4613" lon="-0.81205">
        <ele>7.4000000953674</ele>
        <time>2015-01-12T08:12:00.000Z</time>
      </trkpt>
      <trkpt lat="46.4612" lon="-0.8121">
        <ele>7.4000000953674</ele>
        <time>2015-01-12T08:12:07.000Z</time>
      </trkpt>
      <trkpt lat="46.46099" lon="-0.81229">
        <ele>7.4000000953674</ele>
        <time>2015-01-12T08:12:23.000Z</time>
      </trkpt>
      <trkpt lat="46.46098" lon="-0.81228">
        <ele>7.4000000953674</ele>
        <time>2015-01-12T08:12:24.000Z</time>
      </trkpt>
      <trkpt lat="46.46098" lon="-0.81228">
        <ele>7.4000000953674</ele>
        <time>2015-01-12T08:12:25.000Z</time>
      </trkpt>
      <trkpt lat="46.46091" lon="-0.81218">
        <ele>7.1999998092651</ele>
        <time>2015-01-12T08:12:33.000Z</time>
      </trkpt>
      <trkpt lat="46.46077" lon="-0.81216">
        <ele>7</ele>
        <time>2015-01-12T08:12:43.000Z</time>
      </trkpt>
      <trkpt lat="46.46065" lon="-0.81214">
        <ele>6.8000001907349</ele>
        <time>2015-01-12T08:12:52.000Z</time>
      </trkpt>
      <trkpt lat="46.46051" lon="-0.81208">
        <ele>6</ele>
        <time>2015-01-12T08:13:01.000Z</time>
      </trkpt>
      <trkpt lat="46.46041" lon="-0.81203">
        <ele>5.5999999046326</ele>
        <time>2015-01-12T08:13:08.000Z</time>
      </trkpt>
      <trkpt lat="46.46029" lon="-0.81192">
        <ele>4.8000001907349</ele>
        <time>2015-01-12T08:13:18.000Z</time>
      </trkpt>
      <trkpt lat="46.46019" lon="-0.81183">
        <ele>4.4000000953674</ele>
        <time>2015-01-12T08:13:26.000Z</time>
      </trkpt>
      <trkpt lat="46.46011" lon="-0.81166">
        <ele>4.4000000953674</ele>
        <time>2015-01-12T08:13:35.000Z</time>
      </trkpt>
      <trkpt lat="46.46008" lon="-0.81151">
        <ele>4.4000000953674</ele>
        <time>2015-01-12T08:13:41.000Z</time>
      </trkpt>
      <trkpt lat="46.46009" lon="-0.81133">
        <ele>4.5999999046326</ele>
        <time>2015-01-12T08:13:49.000Z</time>
      </trkpt>
      <trkpt lat="46.46011" lon="-0.81113">
        <ele>4.4000000953674</ele>
        <time>2015-01-12T08:13:58.000Z</time>
      </trkpt>
      <trkpt lat="46.46014" lon="-0.81099">
        <ele>4.1999998092651</ele>
        <time>2015-01-12T08:14:05.000Z</time>
      </trkpt>
      <trkpt lat="46.46017" lon="-0.81078">
        <ele>4</ele>
        <time>2015-01-12T08:14:15.000Z</time>
      </trkpt>
      <trkpt lat="46.46019" lon="-0.81058">
        <ele>4</ele>
        <time>2015-01-12T08:14:25.000Z</time>
      </trkpt>
      <trkpt lat="46.46021" lon="-0.81041">
        <ele>4.1999998092651</ele>
        <time>2015-01-12T08:14:33.000Z</time>
      </trkpt>
      <trkpt lat="46.46022" lon="-0.81025">
        <ele>4.4000000953674</ele>
        <time>2015-01-12T08:14:41.000Z</time>
      </trkpt>
      <trkpt lat="46.46023" lon="-0.81004">
        <ele>4.4000000953674</ele>
        <time>2015-01-12T08:14:51.000Z</time>
      </trkpt>
      <trkpt lat="46.46023" lon="-0.80984">
        <ele>4.4000000953674</ele>
        <time>2015-01-12T08:15:01.000Z</time>
      </trkpt>
      <trkpt lat="46.46021" lon="-0.80946">
        <ele>4.5999999046326</ele>
        <time>2015-01-12T08:15:21.000Z</time>
      </trkpt>
      <trkpt lat="46.46019" lon="-0.80928">
        <ele>5</ele>
        <time>2015-01-12T08:15:30.000Z</time>
      </trkpt>
      <trkpt lat="46.46015" lon="-0.80912">
        <ele>5.8000001907349</ele>
        <time>2015-01-12T08:15:39.000Z</time>
      </trkpt>
      <trkpt lat="46.46012" lon="-0.80897">
        <ele>6.5999999046326</ele>
        <time>2015-01-12T08:15:47.000Z</time>
      </trkpt>
      <trkpt lat="46.46009" lon="-0.80878">
        <ele>7</ele>
        <time>2015-01-12T08:15:56.000Z</time>
      </trkpt>
      <trkpt lat="46.46006" lon="-0.80861">
        <ele>7</ele>
        <time>2015-01-12T08:16:04.000Z</time>
      </trkpt>
      <trkpt lat="46.45998" lon="-0.80818">
        <ele>6.4000000953674</ele>
        <time>2015-01-12T08:16:26.000Z</time>
      </trkpt>
      <trkpt lat="46.45994" lon="-0.80796">
        <ele>6</ele>
        <time>2015-01-12T08:16:37.000Z</time>
      </trkpt>
      <trkpt lat="46.4599" lon="-0.8077">
        <ele>5.4000000953674</ele>
        <time>2015-01-12T08:16:50.000Z</time>
      </trkpt>
      <trkpt lat="46.45987" lon="-0.80753">
        <ele>4.8000001907349</ele>
        <time>2015-01-12T08:16:59.000Z</time>
      </trkpt>
      <trkpt lat="46.45983" lon="-0.80727">
        <ele>4.1999998092651</ele>
        <time>2015-01-12T08:17:12.000Z</time>
      </trkpt>
      <trkpt lat="46.4598" lon="-0.80714">
        <ele>4.1999998092651</ele>
        <time>2015-01-12T08:17:19.000Z</time>
      </trkpt>
      <trkpt lat="46.45977" lon="-0.80696">
        <ele>4.5999999046326</ele>
        <time>2015-01-12T08:17:28.000Z</time>
      </trkpt>
      <trkpt lat="46.45972" lon="-0.80675">
        <ele>5.1999998092651</ele>
        <time>2015-01-12T08:17:39.000Z</time>
      </trkpt>
      <trkpt lat="46.45969" lon="-0.80658">
        <ele>5.5999999046326</ele>
        <time>2015-01-12T08:17:48.000Z</time>
      </trkpt>
      <trkpt lat="46.45966" lon="-0.80637">
        <ele>6.1999998092651</ele>
        <time>2015-01-12T08:17:59.000Z</time>
      </trkpt>
      <trkpt lat="46.45963" lon="-0.80623">
        <ele>6</ele>
        <time>2015-01-12T08:18:06.000Z</time>
      </trkpt>
      <trkpt lat="46.45959" lon="-0.80606">
        <ele>5.8000001907349</ele>
        <time>2015-01-12T08:18:15.000Z</time>
      </trkpt>
      <trkpt lat="46.45956" lon="-0.80589">
        <ele>5.8000001907349</ele>
        <time>2015-01-12T08:18:24.000Z</time>
      </trkpt>
      <trkpt lat="46.45956" lon="-0.80586">
        <ele>5.5999999046326</ele>
        <time>2015-01-12T08:18:26.000Z</time>
      </trkpt>
      <trkpt lat="46.45954" lon="-0.8058">
        <ele>5.5999999046326</ele>
        <time>2015-01-12T08:18:30.000Z</time>
      </trkpt>
      <trkpt lat="46.45953" lon="-0.80571">
        <ele>5.8000001907349</ele>
        <time>2015-01-12T08:18:37.000Z</time>
      </trkpt>
      <trkpt lat="46.45951" lon="-0.80565">
        <ele>5.8000001907349</ele>
        <time>2015-01-12T08:18:41.000Z</time>
      </trkpt>
      <trkpt lat="46.45946" lon="-0.80552">
        <ele>5.8000001907349</ele>
        <time>2015-01-12T08:18:49.000Z</time>
      </trkpt>
      <trkpt lat="46.45941" lon="-0.80551">
        <ele>6</ele>
        <time>2015-01-12T08:18:52.000Z</time>
      </trkpt>
      <trkpt lat="46.45929" lon="-0.80563">
        <ele>6.1999998092651</ele>
        <time>2015-01-12T08:19:03.000Z</time>
      </trkpt>
      <trkpt lat="46.45923" lon="-0.80574">
        <ele>6.4000000953674</ele>
        <time>2015-01-12T08:19:10.000Z</time>
      </trkpt>
      <trkpt lat="46.45919" lon="-0.80589">
        <ele>6.5999999046326</ele>
        <time>2015-01-12T08:19:18.000Z</time>
      </trkpt>
      <trkpt lat="46.45916" lon="-0.80611">
        <ele>6.5999999046326</ele>
        <time>2015-01-12T08:19:29.000Z</time>
      </trkpt>
      <trkpt lat="46.45913" lon="-0.80627">
        <ele>6.8000001907349</ele>
        <time>2015-01-12T08:19:37.000Z</time>
      </trkpt>
      <trkpt lat="46.45908" lon="-0.80646">
        <ele>6.5999999046326</ele>
        <time>2015-01-12T08:19:47.000Z</time>
      </trkpt>
      <trkpt lat="46.45904" lon="-0.80662">
        <ele>6.1999998092651</ele>
        <time>2015-01-12T08:19:55.000Z</time>
      </trkpt>
      <trkpt lat="46.459" lon="-0.80677">
        <ele>5.5999999046326</ele>
        <time>2015-01-12T08:20:03.000Z</time>
      </trkpt>
      <trkpt lat="46.45895" lon="-0.80704">
        <ele>4.8000001907349</ele>
        <time>2015-01-12T08:20:16.000Z</time>
      </trkpt>
      <trkpt lat="46.45893" lon="-0.80724">
        <ele>4.1999998092651</ele>
        <time>2015-01-12T08:20:26.000Z</time>
      </trkpt>
      <trkpt lat="46.45891" lon="-0.80745">
        <ele>4.8000001907349</ele>
        <time>2015-01-12T08:20:36.000Z</time>
      </trkpt>
      <trkpt lat="46.4589" lon="-0.80767">
        <ele>5.5999999046326</ele>
        <time>2015-01-12T08:20:46.000Z</time>
      </trkpt>
      <trkpt lat="46.45888" lon="-0.80785">
        <ele>6.1999998092651</ele>
        <time>2015-01-12T08:20:55.000Z</time>
      </trkpt>
      <trkpt lat="46.45887" lon="-0.80807">
        <ele>6.8000001907349</ele>
        <time>2015-01-12T08:21:06.000Z</time>
      </trkpt>
      <trkpt lat="46.45884" lon="-0.80827">
        <ele>7</ele>
        <time>2015-01-12T08:21:16.000Z</time>
      </trkpt>
      <trkpt lat="46.4588" lon="-0.80847">
        <ele>7.1999998092651</ele>
        <time>2015-01-12T08:21:26.000Z</time>
      </trkpt>
      <trkpt lat="46.45875" lon="-0.80861">
        <ele>7.4000000953674</ele>
        <time>2015-01-12T08:21:34.000Z</time>
      </trkpt>
      <trkpt lat="46.45862" lon="-0.80877">
        <ele>7.4000000953674</ele>
        <time>2015-01-12T08:21:46.000Z</time>
      </trkpt>
      <trkpt lat="46.45851" lon="-0.80893">
        <ele>7.4000000953674</ele>
        <time>2015-01-12T08:21:57.000Z</time>
      </trkpt>
      <trkpt lat="46.45849" lon="-0.80897">
        <ele>7.1999998092651</ele>
        <time>2015-01-12T08:21:59.000Z</time>
      </trkpt>
      <trkpt lat="46.45841" lon="-0.80914">
        <ele>6.5999999046326</ele>
        <time>2015-01-12T08:22:09.000Z</time>
      </trkpt>
      <trkpt lat="46.45833" lon="-0.80938">
        <ele>6</ele>
        <time>2015-01-12T08:22:22.000Z</time>
      </trkpt>
      <trkpt lat="46.45826" lon="-0.80953">
        <ele>5.5999999046326</ele>
        <time>2015-01-12T08:22:31.000Z</time>
      </trkpt>
      <trkpt lat="46.45819" lon="-0.80972">
        <ele>5</ele>
        <time>2015-01-12T08:22:41.000Z</time>
      </trkpt>
      <trkpt lat="46.45812" lon="-0.8099">
        <ele>5.1999998092651</ele>
        <time>2015-01-12T08:22:51.000Z</time>
      </trkpt>
      <trkpt lat="46.45808" lon="-0.81009">
        <ele>5.1999998092651</ele>
        <time>2015-01-12T08:23:00.000Z</time>
      </trkpt>
      <trkpt lat="46.4581" lon="-0.81036">
        <ele>5.5999999046326</ele>
        <time>2015-01-12T08:23:13.000Z</time>
      </trkpt>
      <trkpt lat="46.4581" lon="-0.81061">
        <ele>6</ele>
        <time>2015-01-12T08:23:25.000Z</time>
      </trkpt>
      <trkpt lat="46.45807" lon="-0.81081">
        <ele>5.5999999046326</ele>
        <time>2015-01-12T08:23:34.000Z</time>
      </trkpt>
      <trkpt lat="46.45806" lon="-0.81102">
        <ele>5.4000000953674</ele>
        <time>2015-01-12T08:23:44.000Z</time>
      </trkpt>
      <trkpt lat="46.45801" lon="-0.81121">
        <ele>5.1999998092651</ele>
        <time>2015-01-12T08:23:54.000Z</time>
      </trkpt>
      <trkpt lat="46.45789" lon="-0.81152">
        <ele>4.5999999046326</ele>
        <time>2015-01-12T08:24:11.000Z</time>
      </trkpt>
      <trkpt lat="46.4578" lon="-0.81166">
        <ele>4</ele>
        <time>2015-01-12T08:24:21.000Z</time>
      </trkpt>
      <trkpt lat="46.45766" lon="-0.81175">
        <ele>3.5999999046326</ele>
        <time>2015-01-12T08:24:32.000Z</time>
      </trkpt>
      <trkpt lat="46.45756" lon="-0.81179">
        <ele>3.5999999046326</ele>
        <time>2015-01-12T08:24:39.000Z</time>
      </trkpt>
      <trkpt lat="46.45746" lon="-0.81185">
        <ele>3.4000000953674</ele>
        <time>2015-01-12T08:24:47.000Z</time>
      </trkpt>
      <trkpt lat="46.45733" lon="-0.81193">
        <ele>3</ele>
        <time>2015-01-12T08:24:57.000Z</time>
      </trkpt>
      <trkpt lat="46.45717" lon="-0.81203">
        <ele>3.2000000476837</ele>
        <time>2015-01-12T08:25:09.000Z</time>
      </trkpt>
      <trkpt lat="46.45706" lon="-0.8121">
        <ele>3.4000000953674</ele>
        <time>2015-01-12T08:25:17.000Z</time>
      </trkpt>
      <trkpt lat="46.45693" lon="-0.8122">
        <ele>3.5999999046326</ele>
        <time>2015-01-12T08:25:27.000Z</time>
      </trkpt>
      <trkpt lat="46.45679" lon="-0.81231">
        <ele>3.7999999523163</ele>
        <time>2015-01-12T08:25:38.000Z</time>
      </trkpt>
      <trkpt lat="46.45665" lon="-0.81245">
        <ele>4.1999998092651</ele>
        <time>2015-01-12T08:25:49.000Z</time>
      </trkpt>
      <trkpt lat="46.4565" lon="-0.8126">
        <ele>4.4000000953674</ele>
        <time>2015-01-12T08:26:01.000Z</time>
      </trkpt>
      <trkpt lat="46.45632" lon="-0.81303">
        <ele>4.1999998092651</ele>
        <time>2015-01-12T08:26:24.000Z</time>
      </trkpt>
      <trkpt lat="46.45629" lon="-0.81322">
        <ele>4.1999998092651</ele>
        <time>2015-01-12T08:26:33.000Z</time>
      </trkpt>
      <trkpt lat="46.45625" lon="-0.81344">
        <ele>4.1999998092651</ele>
        <time>2015-01-12T08:26:43.000Z</time>
      </trkpt>
      <trkpt lat="46.45619" lon="-0.81365">
        <ele>4</ele>
        <time>2015-01-12T08:26:53.000Z</time>
      </trkpt>
      <trkpt lat="46.45614" lon="-0.8139">
        <ele>3.7999999523163</ele>
        <time>2015-01-12T08:27:05.000Z</time>
      </trkpt>
      <trkpt lat="46.45612" lon="-0.81417">
        <ele>4</ele>
        <time>2015-01-12T08:27:17.000Z</time>
      </trkpt>
      <trkpt lat="46.45612" lon="-0.81444">
        <ele>4.1999998092651</ele>
        <time>2015-01-12T08:27:29.000Z</time>
      </trkpt>
      <trkpt lat="46.45609" lon="-0.81464">
        <ele>4.4000000953674</ele>
        <time>2015-01-12T08:27:39.000Z</time>
      </trkpt>
      <trkpt lat="46.45603" lon="-0.81483">
        <ele>4.5999999046326</ele>
        <time>2015-01-12T08:27:50.000Z</time>
      </trkpt>
      <trkpt lat="46.45603" lon="-0.81486">
        <ele>4.5999999046326</ele>
        <time>2015-01-12T08:27:52.000Z</time>
      </trkpt>
      <trkpt lat="46.45598" lon="-0.81486">
        <ele>4.5999999046326</ele>
        <time>2015-01-12T08:27:58.000Z</time>
      </trkpt>
      <trkpt lat="46.45593" lon="-0.81485">
        <ele>4.5999999046326</ele>
        <time>2015-01-12T08:28:02.000Z</time>
      </trkpt>
      <trkpt lat="46.45582" lon="-0.81482">
        <ele>4.8000001907349</ele>
        <time>2015-01-12T08:28:12.000Z</time>
      </trkpt>
      <trkpt lat="46.45573" lon="-0.8148">
        <ele>5</ele>
        <time>2015-01-12T08:28:20.000Z</time>
      </trkpt>
      <trkpt lat="46.4557" lon="-0.81488">
        <ele>5</ele>
        <time>2015-01-12T08:28:27.000Z</time>
      </trkpt>
      <trkpt lat="46.45565" lon="-0.81504">
        <ele>5</ele>
        <time>2015-01-12T08:28:36.000Z</time>
      </trkpt>
      <trkpt lat="46.45558" lon="-0.81524">
        <ele>5</ele>
        <time>2015-01-12T08:28:47.000Z</time>
      </trkpt>
      <trkpt lat="46.45551" lon="-0.81547">
        <ele>4.8000001907349</ele>
        <time>2015-01-12T08:28:59.000Z</time>
      </trkpt>
      <trkpt lat="46.45542" lon="-0.81571">
        <ele>5</ele>
        <time>2015-01-12T08:29:12.000Z</time>
      </trkpt>
      <trkpt lat="46.45533" lon="-0.81593">
        <ele>5.4000000953674</ele>
        <time>2015-01-12T08:29:24.000Z</time>
      </trkpt>
      <trkpt lat="46.45526" lon="-0.81611">
        <ele>5.4000000953674</ele>
        <time>2015-01-12T08:29:34.000Z</time>
      </trkpt>
      <trkpt lat="46.45519" lon="-0.81632">
        <ele>5.5999999046326</ele>
        <time>2015-01-12T08:29:45.000Z</time>
      </trkpt>
      <trkpt lat="46.45513" lon="-0.81649">
        <ele>5.5999999046326</ele>
        <time>2015-01-12T08:29:54.000Z</time>
      </trkpt>
      <trkpt lat="46.45505" lon="-0.81669">
        <ele>5.4000000953674</ele>
        <time>2015-01-12T08:30:05.000Z</time>
      </trkpt>
      <trkpt lat="46.45497" lon="-0.8169">
        <ele>5.1999998092651</ele>
        <time>2015-01-12T08:30:17.000Z</time>
      </trkpt>
      <trkpt lat="46.45488" lon="-0.81714">
        <ele>5</ele>
        <time>2015-01-12T08:30:30.000Z</time>
      </trkpt>
      <trkpt lat="46.4548" lon="-0.81737">
        <ele>4.5999999046326</ele>
        <time>2015-01-12T08:30:42.000Z</time>
      </trkpt>
      <trkpt lat="46.45473" lon="-0.81758">
        <ele>4.1999998092651</ele>
        <time>2015-01-12T08:30:53.000Z</time>
      </trkpt>
      <trkpt lat="46.45467" lon="-0.81781">
        <ele>3.7999999523163</ele>
        <time>2015-01-12T08:31:04.000Z</time>
      </trkpt>
      <trkpt lat="46.45463" lon="-0.81803">
        <ele>3.2000000476837</ele>
        <time>2015-01-12T08:31:15.000Z</time>
      </trkpt>
      <trkpt lat="46.4546" lon="-0.81824">
        <ele>3.4000000953674</ele>
        <time>2015-01-12T08:31:25.000Z</time>
      </trkpt>
      <trkpt lat="46.45457" lon="-0.81846">
        <ele>3.7999999523163</ele>
        <time>2015-01-12T08:31:36.000Z</time>
      </trkpt>
      <trkpt lat="46.45454" lon="-0.81858">
        <ele>4</ele>
        <time>2015-01-12T08:31:42.000Z</time>
      </trkpt>
      <trkpt lat="46.45448" lon="-0.81877">
        <ele>4.1999998092651</ele>
        <time>2015-01-12T08:31:52.000Z</time>
      </trkpt>
      <trkpt lat="46.45441" lon="-0.81898">
        <ele>4.5999999046326</ele>
        <time>2015-01-12T08:32:03.000Z</time>
      </trkpt>
      <trkpt lat="46.45434" lon="-0.81923">
        <ele>4.5999999046326</ele>
        <time>2015-01-12T08:32:15.000Z</time>
      </trkpt>
      <trkpt lat="46.45432" lon="-0.81942">
        <ele>4.5999999046326</ele>
        <time>2015-01-12T08:32:24.000Z</time>
      </trkpt>
      <trkpt lat="46.45431" lon="-0.81964">
        <ele>4.5999999046326</ele>
        <time>2015-01-12T08:32:34.000Z</time>
      </trkpt>
      <trkpt lat="46.45432" lon="-0.81988">
        <ele>4.8000001907349</ele>
        <time>2015-01-12T08:32:45.000Z</time>
      </trkpt>
      <trkpt lat="46.45434" lon="-0.82013">
        <ele>5</ele>
        <time>2015-01-12T08:32:56.000Z</time>
      </trkpt>
      <trkpt lat="46.45435" lon="-0.82054">
        <ele>5.5999999046326</ele>
        <time>2015-01-12T08:33:15.000Z</time>
      </trkpt>
      <trkpt lat="46.45435" lon="-0.82056">
        <ele>5.5999999046326</ele>
        <time>2015-01-12T08:33:16.000Z</time>
      </trkpt>
      <trkpt lat="46.45431" lon="-0.82074">
        <ele>5.4000000953674</ele>
        <time>2015-01-12T08:33:25.000Z</time>
      </trkpt>
      <trkpt lat="46.45423" lon="-0.82095">
        <ele>5.1999998092651</ele>
        <time>2015-01-12T08:33:36.000Z</time>
      </trkpt>
      <trkpt lat="46.45413" lon="-0.82116">
        <ele>5.1999998092651</ele>
        <time>2015-01-12T08:33:48.000Z</time>
      </trkpt>
      <trkpt lat="46.45406" lon="-0.82127">
        <ele>5</ele>
        <time>2015-01-12T08:33:55.000Z</time>
      </trkpt>
      <trkpt lat="46.45399" lon="-0.82145">
        <ele>5</ele>
        <time>2015-01-12T08:34:05.000Z</time>
      </trkpt>
      <trkpt lat="46.45395" lon="-0.82164">
        <ele>4.8000001907349</ele>
        <time>2015-01-12T08:34:15.000Z</time>
      </trkpt>
      <trkpt lat="46.45392" lon="-0.82189">
        <ele>4.5999999046326</ele>
        <time>2015-01-12T08:34:26.000Z</time>
      </trkpt>
      <trkpt lat="46.45386" lon="-0.82215">
        <ele>4.5999999046326</ele>
        <time>2015-01-12T08:34:38.000Z</time>
      </trkpt>
      <trkpt lat="46.45377" lon="-0.82234">
        <ele>4.5999999046326</ele>
        <time>2015-01-12T08:34:49.000Z</time>
      </trkpt>
      <trkpt lat="46.45366" lon="-0.82247">
        <ele>5</ele>
        <time>2015-01-12T08:34:58.000Z</time>
      </trkpt>
      <trkpt lat="46.4535" lon="-0.82258">
        <ele>5.4000000953674</ele>
        <time>2015-01-12T08:35:10.000Z</time>
      </trkpt>
      <trkpt lat="46.45337" lon="-0.82262">
        <ele>5.8000001907349</ele>
        <time>2015-01-12T08:35:19.000Z</time>
      </trkpt>
      <trkpt lat="46.45327" lon="-0.82263">
        <ele>6.1999998092651</ele>
        <time>2015-01-12T08:35:26.000Z</time>
      </trkpt>
      <trkpt lat="46.45314" lon="-0.82266">
        <ele>6.4000000953674</ele>
        <time>2015-01-12T08:35:35.000Z</time>
      </trkpt>
      <trkpt lat="46.45302" lon="-0.82271">
        <ele>6.4000000953674</ele>
        <time>2015-01-12T08:35:43.000Z</time>
      </trkpt>
      <trkpt lat="46.45296" lon="-0.82272">
        <ele>6.4000000953674</ele>
        <time>2015-01-12T08:35:49.000Z</time>
      </trkpt>
      <trkpt lat="46.45295" lon="-0.82273">
        <ele>6.4000000953674</ele>
        <time>2015-01-12T08:35:50.000Z</time>
      </trkpt>
      <trkpt lat="46.45289" lon="-0.82274">
        <ele>6.4000000953674</ele>
        <time>2015-01-12T08:35:54.000Z</time>
      </trkpt>
      <trkpt lat="46.45287" lon="-0.82275">
        <ele>6.4000000953674</ele>
        <time>2015-01-12T08:35:55.000Z</time>
      </trkpt>
      <trkpt lat="46.45268" lon="-0.82279">
        <ele>6.4000000953674</ele>
        <time>2015-01-12T08:36:07.000Z</time>
      </trkpt>
      <trkpt lat="46.45252" lon="-0.82291">
        <ele>6.1999998092651</ele>
        <time>2015-01-12T08:36:18.000Z</time>
      </trkpt>
      <trkpt lat="46.45239" lon="-0.82303">
        <ele>6</ele>
        <time>2015-01-12T08:36:28.000Z</time>
      </trkpt>
      <trkpt lat="46.45227" lon="-0.82316">
        <ele>6</ele>
        <time>2015-01-12T08:36:38.000Z</time>
      </trkpt>
      <trkpt lat="46.45213" lon="-0.82332">
        <ele>5.8000001907349</ele>
        <time>2015-01-12T08:36:50.000Z</time>
      </trkpt>
      <trkpt lat="46.45201" lon="-0.82347">
        <ele>5.5999999046326</ele>
        <time>2015-01-12T08:37:01.000Z</time>
      </trkpt>
      <trkpt lat="46.45188" lon="-0.82365">
        <ele>5.4000000953674</ele>
        <time>2015-01-12T08:37:13.000Z</time>
      </trkpt>
      <trkpt lat="46.45175" lon="-0.82384">
        <ele>5.4000000953674</ele>
        <time>2015-01-12T08:37:25.000Z</time>
      </trkpt>
      <trkpt lat="46.45164" lon="-0.82402">
        <ele>4.8000001907349</ele>
        <time>2015-01-12T08:37:36.000Z</time>
      </trkpt>
      <trkpt lat="46.45154" lon="-0.82423">
        <ele>3.7999999523163</ele>
        <time>2015-01-12T08:37:48.000Z</time>
      </trkpt>
      <trkpt lat="46.45145" lon="-0.82446">
        <ele>2.7999999523163</ele>
        <time>2015-01-12T08:38:00.000Z</time>
      </trkpt>
      <trkpt lat="46.45137" lon="-0.82471">
        <ele>1.7999999523163</ele>
        <time>2015-01-12T08:38:13.000Z</time>
      </trkpt>
      <trkpt lat="46.45129" lon="-0.82496">
        <ele>2.2000000476837</ele>
        <time>2015-01-12T08:38:26.000Z</time>
      </trkpt>
      <trkpt lat="46.45122" lon="-0.8252">
        <ele>2.5999999046326</ele>
        <time>2015-01-12T08:38:38.000Z</time>
      </trkpt>
      <trkpt lat="46.45115" lon="-0.82543">
        <ele>2.7999999523163</ele>
        <time>2015-01-12T08:38:49.000Z</time>
      </trkpt>
      <trkpt lat="46.4511" lon="-0.82561">
        <ele>3.2000000476837</ele>
        <time>2015-01-12T08:38:58.000Z</time>
      </trkpt>
      <trkpt lat="46.45103" lon="-0.82585">
        <ele>4</ele>
        <time>2015-01-12T08:39:10.000Z</time>
      </trkpt>
      <trkpt lat="46.45097" lon="-0.82612">
        <ele>5</ele>
        <time>2015-01-12T08:39:23.000Z</time>
      </trkpt>
      <trkpt lat="46.45092" lon="-0.82638">
        <ele>5.4000000953674</ele>
        <time>2015-01-12T08:39:35.000Z</time>
      </trkpt>
      <trkpt lat="46.45087" lon="-0.82661">
        <ele>5.1999998092651</ele>
        <time>2015-01-12T08:39:46.000Z</time>
      </trkpt>
      <trkpt lat="46.45082" lon="-0.82688">
        <ele>5</ele>
        <time>2015-01-12T08:39:59.000Z</time>
      </trkpt>
      <trkpt lat="46.45077" lon="-0.82716">
        <ele>4.8000001907349</ele>
        <time>2015-01-12T08:40:12.000Z</time>
      </trkpt>
      <trkpt lat="46.45072" lon="-0.82742">
        <ele>5</ele>
        <time>2015-01-12T08:40:24.000Z</time>
      </trkpt>
      <trkpt lat="46.45069" lon="-0.82769">
        <ele>5</ele>
        <time>2015-01-12T08:40:37.000Z</time>
      </trkpt>
      <trkpt lat="46.45065" lon="-0.82795">
        <ele>5</ele>
        <time>2015-01-12T08:40:49.000Z</time>
      </trkpt>
      <trkpt lat="46.45062" lon="-0.82821">
        <ele>4.8000001907349</ele>
        <time>2015-01-12T08:41:01.000Z</time>
      </trkpt>
      <trkpt lat="46.45059" lon="-0.82844">
        <ele>4.5999999046326</ele>
        <time>2015-01-12T08:41:12.000Z</time>
      </trkpt>
      <trkpt lat="46.45059" lon="-0.8287">
        <ele>4.4000000953674</ele>
        <time>2015-01-12T08:41:24.000Z</time>
      </trkpt>
      <trkpt lat="46.45059" lon="-0.82892">
        <ele>4</ele>
        <time>2015-01-12T08:41:34.000Z</time>
      </trkpt>
      <trkpt lat="46.45057" lon="-0.8292">
        <ele>4</ele>
        <time>2015-01-12T08:41:47.000Z</time>
      </trkpt>
      <trkpt lat="46.45054" lon="-0.82942">
        <ele>4</ele>
        <time>2015-01-12T08:41:58.000Z</time>
      </trkpt>
      <trkpt lat="46.4505" lon="-0.82963">
        <ele>4</ele>
        <time>2015-01-12T08:42:09.000Z</time>
      </trkpt>
      <trkpt lat="46.45041" lon="-0.82988">
        <ele>4.1999998092651</ele>
        <time>2015-01-12T08:42:22.000Z</time>
      </trkpt>
      <trkpt lat="46.45039" lon="-0.82992">
        <ele>4.1999998092651</ele>
        <time>2015-01-12T08:42:24.000Z</time>
      </trkpt>
      <trkpt lat="46.45033" lon="-0.83006">
        <ele>4.4000000953674</ele>
        <time>2015-01-12T08:42:32.000Z</time>
      </trkpt>
      <trkpt lat="46.45022" lon="-0.83026">
        <ele>4.5999999046326</ele>
        <time>2015-01-12T08:42:44.000Z</time>
      </trkpt>
      <trkpt lat="46.4501" lon="-0.83047">
        <ele>4.5999999046326</ele>
        <time>2015-01-12T08:42:57.000Z</time>
      </trkpt>
      <trkpt lat="46.45" lon="-0.83062">
        <ele>4.8000001907349</ele>
        <time>2015-01-12T08:43:07.000Z</time>
      </trkpt>
      <trkpt lat="46.44988" lon="-0.83078">
        <ele>4.5999999046326</ele>
        <time>2015-01-12T08:43:18.000Z</time>
      </trkpt>
      <trkpt lat="46.44976" lon="-0.83096">
        <ele>4.8000001907349</ele>
        <time>2015-01-12T08:43:30.000Z</time>
      </trkpt>
      <trkpt lat="46.44967" lon="-0.83112">
        <ele>4.8000001907349</ele>
        <time>2015-01-12T08:43:40.000Z</time>
      </trkpt>
      <trkpt lat="46.44959" lon="-0.83126">
        <ele>5</ele>
        <time>2015-01-12T08:43:49.000Z</time>
      </trkpt>
      <trkpt lat="46.44953" lon="-0.83138">
        <ele>5</ele>
        <time>2015-01-12T08:43:56.000Z</time>
      </trkpt>
      <trkpt lat="46.44946" lon="-0.83157">
        <ele>5.4000000953674</ele>
        <time>2015-01-12T08:44:06.000Z</time>
      </trkpt>
      <trkpt lat="46.44944" lon="-0.83171">
        <ele>5.4000000953674</ele>
        <time>2015-01-12T08:44:13.000Z</time>
      </trkpt>
      <trkpt lat="46.44944" lon="-0.8318">
        <ele>5.4000000953674</ele>
        <time>2015-01-12T08:44:17.000Z</time>
      </trkpt>
      <trkpt lat="46.44944" lon="-0.83199">
        <ele>4.8000001907349</ele>
        <time>2015-01-12T08:44:26.000Z</time>
      </trkpt>
      <trkpt lat="46.44944" lon="-0.8322">
        <ele>4.4000000953674</ele>
        <time>2015-01-12T08:44:35.000Z</time>
      </trkpt>
      <trkpt lat="46.44946" lon="-0.83247">
        <ele>3.7999999523163</ele>
        <time>2015-01-12T08:44:47.000Z</time>
      </trkpt>
      <trkpt lat="46.44949" lon="-0.83271">
        <ele>3.7999999523163</ele>
        <time>2015-01-12T08:44:58.000Z</time>
      </trkpt>
      <trkpt lat="46.44952" lon="-0.83293">
        <ele>4</ele>
        <time>2015-01-12T08:45:08.000Z</time>
      </trkpt>
      <trkpt lat="46.44954" lon="-0.83308">
        <ele>4</ele>
        <time>2015-01-12T08:45:15.000Z</time>
      </trkpt>
      <trkpt lat="46.44957" lon="-0.83332">
        <ele>4</ele>
        <time>2015-01-12T08:45:26.000Z</time>
      </trkpt>
      <trkpt lat="46.4496" lon="-0.83358">
        <ele>4.5999999046326</ele>
        <time>2015-01-12T08:45:38.000Z</time>
      </trkpt>
      <trkpt lat="46.44961" lon="-0.83382">
        <ele>5.1999998092651</ele>
        <time>2015-01-12T08:45:49.000Z</time>
      </trkpt>
      <trkpt lat="46.4496" lon="-0.83409">
        <ele>5</ele>
        <time>2015-01-12T08:46:01.000Z</time>
      </trkpt>
      <trkpt lat="46.44954" lon="-0.83434">
        <ele>5</ele>
        <time>2015-01-12T08:46:13.000Z</time>
      </trkpt>
      <trkpt lat="46.44945" lon="-0.83457">
        <ele>5</ele>
        <time>2015-01-12T08:46:25.000Z</time>
      </trkpt>
      <trkpt lat="46.44935" lon="-0.83479">
        <ele>5</ele>
        <time>2015-01-12T08:46:37.000Z</time>
      </trkpt>
      <trkpt lat="46.44925" lon="-0.83498">
        <ele>4.5999999046326</ele>
        <time>2015-01-12T08:46:48.000Z</time>
      </trkpt>
      <trkpt lat="46.44917" lon="-0.83513">
        <ele>4.5999999046326</ele>
        <time>2015-01-12T08:46:57.000Z</time>
      </trkpt>
      <trkpt lat="46.44906" lon="-0.83534">
        <ele>4.1999998092651</ele>
        <time>2015-01-12T08:47:09.000Z</time>
      </trkpt>
      <trkpt lat="46.44894" lon="-0.83555">
        <ele>4</ele>
        <time>2015-01-12T08:47:21.000Z</time>
      </trkpt>
      <trkpt lat="46.44882" lon="-0.83574">
        <ele>4.4000000953674</ele>
        <time>2015-01-12T08:47:33.000Z</time>
      </trkpt>
      <trkpt lat="46.44868" lon="-0.83594">
        <ele>4.5999999046326</ele>
        <time>2015-01-12T08:47:46.000Z</time>
      </trkpt>
      <trkpt lat="46.44855" lon="-0.83614">
        <ele>4.8000001907349</ele>
        <time>2015-01-12T08:47:59.000Z</time>
      </trkpt>
      <trkpt lat="46.44843" lon="-0.83632">
        <ele>4.8000001907349</ele>
        <time>2015-01-12T08:48:11.000Z</time>
      </trkpt>
      <trkpt lat="46.44829" lon="-0.83652">
        <ele>5</ele>
        <time>2015-01-12T08:48:24.000Z</time>
      </trkpt>
      <trkpt lat="46.44818" lon="-0.83668">
        <ele>5.1999998092651</ele>
        <time>2015-01-12T08:48:34.000Z</time>
      </trkpt>
      <trkpt lat="46.4481" lon="-0.83683">
        <ele>5</ele>
        <time>2015-01-12T08:48:44.000Z</time>
      </trkpt>
      <trkpt lat="46.44811" lon="-0.83687">
        <ele>5</ele>
        <time>2015-01-12T08:48:50.000Z</time>
      </trkpt>
      <trkpt lat="46.44813" lon="-0.8369">
        <ele>4.8000001907349</ele>
        <time>2015-01-12T08:48:55.000Z</time>
      </trkpt>
      <trkpt lat="46.44815" lon="-0.83691">
        <ele>4.8000001907349</ele>
        <time>2015-01-12T08:49:02.000Z</time>
      </trkpt>
      <trkpt lat="46.44817" lon="-0.83691">
        <ele>4.8000001907349</ele>
        <time>2015-01-12T08:49:12.000Z</time>
      </trkpt>
      <trkpt lat="46.44817" lon="-0.83692">
        <ele>4.5999999046326</ele>
        <time>2015-01-12T08:49:38.000Z</time>
      </trkpt>
      <trkpt lat="46.44819" lon="-0.83694">
        <ele>4.5999999046326</ele>
        <time>2015-01-12T08:49:44.000Z</time>
      </trkpt>
      <trkpt lat="46.4482" lon="-0.83696">
        <ele>4.4000000953674</ele>
        <time>2015-01-12T08:49:49.000Z</time>
      </trkpt>
      <trkpt lat="46.4482" lon="-0.83697">
        <ele>4.4000000953674</ele>
        <time>2015-01-12T08:49:54.000Z</time>
      </trkpt>
      <trkpt lat="46.44824" lon="-0.83703">
        <ele>4</ele>
        <time>2015-01-12T08:50:40.000Z</time>
      </trkpt>
      <trkpt lat="46.44826" lon="-0.83705">
        <ele>4</ele>
        <time>2015-01-12T08:50:45.000Z</time>
      </trkpt>
      <trkpt lat="46.44831" lon="-0.83711">
        <ele>3.5999999046326</ele>
        <time>2015-01-12T08:50:54.000Z</time>
      </trkpt>
      <trkpt lat="46.44833" lon="-0.83713">
        <ele>3.5999999046326</ele>
        <time>2015-01-12T08:50:59.000Z</time>
      </trkpt>
      <trkpt lat="46.44835" lon="-0.83718">
        <ele>3.5999999046326</ele>
        <time>2015-01-12T08:51:07.000Z</time>
      </trkpt>
      <trkpt lat="46.44837" lon="-0.83718">
        <ele>3.5999999046326</ele>
        <time>2015-01-12T08:51:15.000Z</time>
      </trkpt>
      <trkpt lat="46.44837" lon="-0.83714">
        <ele>3.4000000953674</ele>
        <time>2015-01-12T08:51:38.000Z</time>
      </trkpt>
      <trkpt lat="46.44842" lon="-0.83714">
        <ele>3.4000000953674</ele>
        <time>2015-01-12T08:55:26.000Z</time>
      </trkpt>
      <trkpt lat="46.44844" lon="-0.83708">
        <ele>3.4000000953674</ele>
        <time>2015-01-12T08:56:23.000Z</time>
      </trkpt>
      <trkpt lat="46.44848" lon="-0.83698">
        <ele>3.2000000476837</ele>
        <time>2015-01-12T08:56:32.000Z</time>
      </trkpt>
      <trkpt lat="46.44849" lon="-0.83697">
        <ele>3.2000000476837</ele>
        <time>2015-01-12T08:56:33.000Z</time>
      </trkpt>
      <trkpt lat="46.44853" lon="-0.83694">
        <ele>3.2000000476837</ele>
        <time>2015-01-12T08:56:38.000Z</time>
      </trkpt>
      <trkpt lat="46.44857" lon="-0.83686">
        <ele>3</ele>
        <time>2015-01-12T08:56:45.000Z</time>
      </trkpt>
      <trkpt lat="46.44857" lon="-0.83685">
        <ele>3</ele>
        <time>2015-01-12T08:56:46.000Z</time>
      </trkpt>
      <trkpt lat="46.44865" lon="-0.83673">
        <ele>2.7999999523163</ele>
        <time>2015-01-12T08:56:55.000Z</time>
      </trkpt>
      <trkpt lat="46.44872" lon="-0.8367">
        <ele>2.5999999046326</ele>
        <time>2015-01-12T08:57:01.000Z</time>
      </trkpt>
      <trkpt lat="46.44884" lon="-0.83673">
        <ele>2.4000000953674</ele>
        <time>2015-01-12T08:57:10.000Z</time>
      </trkpt>
      <trkpt lat="46.44893" lon="-0.83676">
        <ele>2.2000000476837</ele>
        <time>2015-01-12T08:57:18.000Z</time>
      </trkpt>
      <trkpt lat="46.44895" lon="-0.83675">
        <ele>2.2000000476837</ele>
        <time>2015-01-12T08:57:19.000Z</time>
      </trkpt>
      <trkpt lat="46.449" lon="-0.83673">
        <ele>2</ele>
        <time>2015-01-12T08:57:24.000Z</time>
      </trkpt>
      <trkpt lat="46.44909" lon="-0.83668">
        <ele>2.2000000476837</ele>
        <time>2015-01-12T08:57:35.000Z</time>
      </trkpt>
      <trkpt lat="46.44922" lon="-0.83661">
        <ele>2.5999999046326</ele>
        <time>2015-01-12T08:57:47.000Z</time>
      </trkpt>
      <trkpt lat="46.44931" lon="-0.83656">
        <ele>2.7999999523163</ele>
        <time>2015-01-12T08:57:56.000Z</time>
      </trkpt>
      <trkpt lat="46.44932" lon="-0.83655">
        <ele>2.7999999523163</ele>
        <time>2015-01-12T08:57:57.000Z</time>
      </trkpt>
      <trkpt lat="46.4494" lon="-0.83656">
        <ele>3</ele>
        <time>2015-01-12T08:58:05.000Z</time>
      </trkpt>
      <trkpt lat="46.44952" lon="-0.83656">
        <ele>3.2000000476837</ele>
        <time>2015-01-12T08:58:14.000Z</time>
      </trkpt>
      <trkpt lat="46.44962" lon="-0.83655">
        <ele>3.5999999046326</ele>
        <time>2015-01-12T08:58:23.000Z</time>
      </trkpt>
      <trkpt lat="46.44972" lon="-0.83653">
        <ele>3.7999999523163</ele>
        <time>2015-01-12T08:58:32.000Z</time>
      </trkpt>
      <trkpt lat="46.44985" lon="-0.83651">
        <ele>3.7999999523163</ele>
        <time>2015-01-12T08:58:42.000Z</time>
      </trkpt>
      <trkpt lat="46.44998" lon="-0.83649">
        <ele>3.7999999523163</ele>
        <time>2015-01-12T08:58:52.000Z</time>
      </trkpt>
      <trkpt lat="46.45008" lon="-0.83648">
        <ele>3.7999999523163</ele>
        <time>2015-01-12T08:59:00.000Z</time>
      </trkpt>
      <trkpt lat="46.45022" lon="-0.83645">
        <ele>4</ele>
        <time>2015-01-12T08:59:10.000Z</time>
      </trkpt>
      <trkpt lat="46.45035" lon="-0.83644">
        <ele>4</ele>
        <time>2015-01-12T08:59:20.000Z</time>
      </trkpt>
      <trkpt lat="46.4505" lon="-0.83642">
        <ele>4</ele>
        <time>2015-01-12T08:59:31.000Z</time>
      </trkpt>
      <trkpt lat="46.45065" lon="-0.8364">
        <ele>4</ele>
        <time>2015-01-12T08:59:42.000Z</time>
      </trkpt>
      <trkpt lat="46.4508" lon="-0.83638">
        <ele>4.1999998092651</ele>
        <time>2015-01-12T08:59:54.000Z</time>
      </trkpt>
      <trkpt lat="46.45096" lon="-0.83636">
        <ele>4.4000000953674</ele>
        <time>2015-01-12T09:00:06.000Z</time>
      </trkpt>
      <trkpt lat="46.45107" lon="-0.83634">
        <ele>4.5999999046326</ele>
        <time>2015-01-12T09:00:14.000Z</time>
      </trkpt>
      <trkpt lat="46.45112" lon="-0.83633">
        <ele>4.5999999046326</ele>
        <time>2015-01-12T09:00:18.000Z</time>
      </trkpt>
      <trkpt lat="46.45125" lon="-0.83632">
        <ele>4.8000001907349</ele>
        <time>2015-01-12T09:00:28.000Z</time>
      </trkpt>
      <trkpt lat="46.45128" lon="-0.83636">
        <ele>4.8000001907349</ele>
        <time>2015-01-12T09:00:34.000Z</time>
      </trkpt>
      <trkpt lat="46.4513" lon="-0.83641">
        <ele>4.8000001907349</ele>
        <time>2015-01-12T09:00:38.000Z</time>
      </trkpt>
      <trkpt lat="46.45128" lon="-0.83646">
        <ele>4.5999999046326</ele>
        <time>2015-01-12T09:00:42.000Z</time>
      </trkpt>
      <trkpt lat="46.45123" lon="-0.8366">
        <ele>4.1999998092651</ele>
        <time>2015-01-12T09:00:53.000Z</time>
      </trkpt>
      <trkpt lat="46.45116" lon="-0.83679">
        <ele>3.5999999046326</ele>
        <time>2015-01-12T09:01:05.000Z</time>
      </trkpt>
      <trkpt lat="46.4511" lon="-0.83704">
        <ele>2.5999999046326</ele>
        <time>2015-01-12T09:01:18.000Z</time>
      </trkpt>
      <trkpt lat="46.45103" lon="-0.83729">
        <ele>2</ele>
        <time>2015-01-12T09:01:31.000Z</time>
      </trkpt>
      <trkpt lat="46.45097" lon="-0.8375">
        <ele>2.4000000953674</ele>
        <time>2015-01-12T09:01:42.000Z</time>
      </trkpt>
      <trkpt lat="46.4509" lon="-0.83773">
        <ele>2.5999999046326</ele>
        <time>2015-01-12T09:01:54.000Z</time>
      </trkpt>
      <trkpt lat="46.45082" lon="-0.83798">
        <ele>2.7999999523163</ele>
        <time>2015-01-12T09:02:07.000Z</time>
      </trkpt>
      <trkpt lat="46.45075" lon="-0.83824">
        <ele>3.2000000476837</ele>
        <time>2015-01-12T09:02:20.000Z</time>
      </trkpt>
      <trkpt lat="46.45069" lon="-0.83844">
        <ele>3.4000000953674</ele>
        <time>2015-01-12T09:02:30.000Z</time>
      </trkpt>
      <trkpt lat="46.45062" lon="-0.83867">
        <ele>3.7999999523163</ele>
        <time>2015-01-12T09:02:42.000Z</time>
      </trkpt>
      <trkpt lat="46.45054" lon="-0.83891">
        <ele>4</ele>
        <time>2015-01-12T09:02:54.000Z</time>
      </trkpt>
      <trkpt lat="46.4505" lon="-0.83903">
        <ele>4</ele>
        <time>2015-01-12T09:03:00.000Z</time>
      </trkpt>
      <trkpt lat="46.45046" lon="-0.83925">
        <ele>3.7999999523163</ele>
        <time>2015-01-12T09:03:11.000Z</time>
      </trkpt>
      <trkpt lat="46.4504" lon="-0.83942">
        <ele>3.5999999046326</ele>
        <time>2015-01-12T09:03:20.000Z</time>
      </trkpt>
      <trkpt lat="46.45032" lon="-0.8396">
        <ele>3.5999999046326</ele>
        <time>2015-01-12T09:03:30.000Z</time>
      </trkpt>
      <trkpt lat="46.45021" lon="-0.83983">
        <ele>3.4000000953674</ele>
        <time>2015-01-12T09:03:43.000Z</time>
      </trkpt>
      <trkpt lat="46.45011" lon="-0.84004">
        <ele>3.2000000476837</ele>
        <time>2015-01-12T09:03:55.000Z</time>
      </trkpt>
      <trkpt lat="46.45002" lon="-0.84023">
        <ele>3.2000000476837</ele>
        <time>2015-01-12T09:04:06.000Z</time>
      </trkpt>
      <trkpt lat="46.44991" lon="-0.84046">
        <ele>3</ele>
        <time>2015-01-12T09:04:18.000Z</time>
      </trkpt>
      <trkpt lat="46.44982" lon="-0.84067">
        <ele>3</ele>
        <time>2015-01-12T09:04:30.000Z</time>
      </trkpt>
      <trkpt lat="46.44971" lon="-0.84089">
        <ele>3</ele>
        <time>2015-01-12T09:04:43.000Z</time>
      </trkpt>
      <trkpt lat="46.44961" lon="-0.84112">
        <ele>3</ele>
        <time>2015-01-12T09:04:56.000Z</time>
      </trkpt>
      <trkpt lat="46.44953" lon="-0.84127">
        <ele>3</ele>
        <time>2015-01-12T09:05:05.000Z</time>
      </trkpt>
      <trkpt lat="46.44944" lon="-0.84148">
        <ele>3.2000000476837</ele>
        <time>2015-01-12T09:05:17.000Z</time>
      </trkpt>
      <trkpt lat="46.44936" lon="-0.84165">
        <ele>3.4000000953674</ele>
        <time>2015-01-12T09:05:27.000Z</time>
      </trkpt>
      <trkpt lat="46.44928" lon="-0.8418">
        <ele>3.4000000953674</ele>
        <time>2015-01-12T09:05:36.000Z</time>
      </trkpt>
      <trkpt lat="46.44919" lon="-0.84201">
        <ele>3.7999999523163</ele>
        <time>2015-01-12T09:05:48.000Z</time>
      </trkpt>
      <trkpt lat="46.44917" lon="-0.84208">
        <ele>3.7999999523163</ele>
        <time>2015-01-12T09:05:52.000Z</time>
      </trkpt>
      <trkpt lat="46.44921" lon="-0.84216">
        <ele>3.7999999523163</ele>
        <time>2015-01-12T09:05:58.000Z</time>
      </trkpt>
      <trkpt lat="46.44922" lon="-0.84216">
        <ele>3.7999999523163</ele>
        <time>2015-01-12T09:05:59.000Z</time>
      </trkpt>
      <trkpt lat="46.44935" lon="-0.84214">
        <ele>3.5999999046326</ele>
        <time>2015-01-12T09:06:08.000Z</time>
      </trkpt>
      <trkpt lat="46.44949" lon="-0.84209">
        <ele>3.4000000953674</ele>
        <time>2015-01-12T09:06:18.000Z</time>
      </trkpt>
      <trkpt lat="46.44967" lon="-0.84202">
        <ele>3.2000000476837</ele>
        <time>2015-01-12T09:06:31.000Z</time>
      </trkpt>
      <trkpt lat="46.44982" lon="-0.84197">
        <ele>3</ele>
        <time>2015-01-12T09:06:42.000Z</time>
      </trkpt>
      <trkpt lat="46.44989" lon="-0.84194">
        <ele>3</ele>
        <time>2015-01-12T09:06:48.000Z</time>
      </trkpt>
      <trkpt lat="46.45006" lon="-0.84187">
        <ele>3.2000000476837</ele>
        <time>2015-01-12T09:07:00.000Z</time>
      </trkpt>
      <trkpt lat="46.45024" lon="-0.84181">
        <ele>3.4000000953674</ele>
        <time>2015-01-12T09:07:13.000Z</time>
      </trkpt>
      <trkpt lat="46.4504" lon="-0.84175">
        <ele>3.5999999046326</ele>
        <time>2015-01-12T09:07:25.000Z</time>
      </trkpt>
      <trkpt lat="46.45054" lon="-0.84169">
        <ele>3.5999999046326</ele>
        <time>2015-01-12T09:07:35.000Z</time>
      </trkpt>
      <trkpt lat="46.45072" lon="-0.84162">
        <ele>3.5999999046326</ele>
        <time>2015-01-12T09:07:48.000Z</time>
      </trkpt>
      <trkpt lat="46.45087" lon="-0.84156">
        <ele>3.5999999046326</ele>
        <time>2015-01-12T09:07:59.000Z</time>
      </trkpt>
      <trkpt lat="46.45095" lon="-0.84153">
        <ele>3.4000000953674</ele>
        <time>2015-01-12T09:08:06.000Z</time>
      </trkpt>
      <trkpt lat="46.45105" lon="-0.84148">
        <ele>3.4000000953674</ele>
        <time>2015-01-12T09:08:14.000Z</time>
      </trkpt>
      <trkpt lat="46.45116" lon="-0.84143">
        <ele>3.4000000953674</ele>
        <time>2015-01-12T09:08:23.000Z</time>
      </trkpt>
      <trkpt lat="46.45126" lon="-0.84139">
        <ele>3.2000000476837</ele>
        <time>2015-01-12T09:08:31.000Z</time>
      </trkpt>
      <trkpt lat="46.45136" lon="-0.84135">
        <ele>3.2000000476837</ele>
        <time>2015-01-12T09:08:38.000Z</time>
      </trkpt>
      <trkpt lat="46.45144" lon="-0.84132">
        <ele>3</ele>
        <time>2015-01-12T09:08:44.000Z</time>
      </trkpt>
      <trkpt lat="46.45154" lon="-0.84128">
        <ele>3</ele>
        <time>2015-01-12T09:08:51.000Z</time>
      </trkpt>
      <trkpt lat="46.45164" lon="-0.84124">
        <ele>3</ele>
        <time>2015-01-12T09:08:58.000Z</time>
      </trkpt>
      <trkpt lat="46.45181" lon="-0.84118">
        <ele>3</ele>
        <time>2015-01-12T09:09:10.000Z</time>
      </trkpt>
      <trkpt lat="46.45197" lon="-0.84113">
        <ele>3</ele>
        <time>2015-01-12T09:09:21.000Z</time>
      </trkpt>
      <trkpt lat="46.45212" lon="-0.84107">
        <ele>3</ele>
        <time>2015-01-12T09:09:32.000Z</time>
      </trkpt>
      <trkpt lat="46.45225" lon="-0.84103">
        <ele>3</ele>
        <time>2015-01-12T09:09:41.000Z</time>
      </trkpt>
      <trkpt lat="46.4524" lon="-0.84098">
        <ele>3</ele>
        <time>2015-01-12T09:09:51.000Z</time>
      </trkpt>
      <trkpt lat="46.45254" lon="-0.84092">
        <ele>3</ele>
        <time>2015-01-12T09:10:01.000Z</time>
      </trkpt>
      <trkpt lat="46.45272" lon="-0.84085">
        <ele>3</ele>
        <time>2015-01-12T09:10:14.000Z</time>
      </trkpt>
      <trkpt lat="46.45288" lon="-0.84079">
        <ele>3</ele>
        <time>2015-01-12T09:10:25.000Z</time>
      </trkpt>
      <trkpt lat="46.45299" lon="-0.84076">
        <ele>3</ele>
        <time>2015-01-12T09:10:33.000Z</time>
      </trkpt>
      <trkpt lat="46.45312" lon="-0.84071">
        <ele>3.2000000476837</ele>
        <time>2015-01-12T09:10:42.000Z</time>
      </trkpt>
      <trkpt lat="46.45326" lon="-0.84065">
        <ele>3.2000000476837</ele>
        <time>2015-01-12T09:10:52.000Z</time>
      </trkpt>
      <trkpt lat="46.45329" lon="-0.84063">
        <ele>3.2000000476837</ele>
        <time>2015-01-12T09:10:54.000Z</time>
      </trkpt>
      <trkpt lat="46.45356" lon="-0.84052">
        <ele>3.4000000953674</ele>
        <time>2015-01-12T09:11:13.000Z</time>
      </trkpt>
      <trkpt lat="46.4537" lon="-0.84046">
        <ele>3.5999999046326</ele>
        <time>2015-01-12T09:11:23.000Z</time>
      </trkpt>
      <trkpt lat="46.45381" lon="-0.84043">
        <ele>3.7999999523163</ele>
        <time>2015-01-12T09:11:32.000Z</time>
      </trkpt>
      <trkpt lat="46.4539" lon="-0.84041">
        <ele>3.7999999523163</ele>
        <time>2015-01-12T09:11:39.000Z</time>
      </trkpt>
      <trkpt lat="46.45402" lon="-0.84042">
        <ele>4.1999998092651</ele>
        <time>2015-01-12T09:11:48.000Z</time>
      </trkpt>
      <trkpt lat="46.45415" lon="-0.84049">
        <ele>5</ele>
        <time>2015-01-12T09:11:58.000Z</time>
      </trkpt>
      <trkpt lat="46.45436" lon="-0.8406">
        <ele>6.8000001907349</ele>
        <time>2015-01-12T09:12:14.000Z</time>
      </trkpt>
      <trkpt lat="46.4545" lon="-0.84067">
        <ele>7.8000001907349</ele>
        <time>2015-01-12T09:12:24.000Z</time>
      </trkpt>
      <trkpt lat="46.45462" lon="-0.84072">
        <ele>8.8000001907349</ele>
        <time>2015-01-12T09:12:33.000Z</time>
      </trkpt>
      <trkpt lat="46.45472" lon="-0.84078">
        <ele>10.39999961853</ele>
        <time>2015-01-12T09:12:42.000Z</time>
      </trkpt>
      <trkpt lat="46.45475" lon="-0.84081">
        <ele>10.800000190735</ele>
        <time>2015-01-12T09:12:45.000Z</time>
      </trkpt>
      <trkpt lat="46.45476" lon="-0.84082">
        <ele>11.199999809265</ele>
        <time>2015-01-12T09:12:51.000Z</time>
      </trkpt>
      <trkpt lat="46.45477" lon="-0.84086">
        <ele>11.39999961853</ele>
        <time>2015-01-12T09:12:56.000Z</time>
      </trkpt>
      <trkpt lat="46.45477" lon="-0.84087">
        <ele>11.60000038147</ele>
        <time>2015-01-12T09:13:06.000Z</time>
      </trkpt>
      <trkpt lat="46.45478" lon="-0.84099">
        <ele>12.60000038147</ele>
        <time>2015-01-12T09:15:49.000Z</time>
      </trkpt>
      <trkpt lat="46.45478" lon="-0.841">
        <ele>12.60000038147</ele>
        <time>2015-01-12T09:15:55.000Z</time>
      </trkpt>
      <trkpt lat="46.45478" lon="-0.84106">
        <ele>13</ele>
        <time>2015-01-12T09:16:21.000Z</time>
      </trkpt>
      <trkpt lat="46.45475" lon="-0.84121">
        <ele>13.800000190735</ele>
        <time>2015-01-12T09:16:30.000Z</time>
      </trkpt>
      <trkpt lat="46.45471" lon="-0.84134">
        <ele>14.199999809265</ele>
        <time>2015-01-12T09:16:37.000Z</time>
      </trkpt>
      <trkpt lat="46.45466" lon="-0.84152">
        <ele>14.60000038147</ele>
        <time>2015-01-12T09:16:47.000Z</time>
      </trkpt>
      <trkpt lat="46.45462" lon="-0.8417">
        <ele>15.199999809265</ele>
        <time>2015-01-12T09:16:57.000Z</time>
      </trkpt>
      <trkpt lat="46.45454" lon="-0.84194">
        <ele>15.60000038147</ele>
        <time>2015-01-12T09:17:10.000Z</time>
      </trkpt>
      <trkpt lat="46.45447" lon="-0.84218">
        <ele>16</ele>
        <time>2015-01-12T09:17:23.000Z</time>
      </trkpt>
      <trkpt lat="46.45441" lon="-0.84237">
        <ele>16</ele>
        <time>2015-01-12T09:17:33.000Z</time>
      </trkpt>
      <trkpt lat="46.45436" lon="-0.84258">
        <ele>16</ele>
        <time>2015-01-12T09:17:44.000Z</time>
      </trkpt>
      <trkpt lat="46.45432" lon="-0.84282">
        <ele>16.200000762939</ele>
        <time>2015-01-12T09:17:56.000Z</time>
      </trkpt>
      <trkpt lat="46.45428" lon="-0.84308">
        <ele>16</ele>
        <time>2015-01-12T09:18:08.000Z</time>
      </trkpt>
      <trkpt lat="46.45424" lon="-0.84333">
        <ele>17</ele>
        <time>2015-01-12T09:18:20.000Z</time>
      </trkpt>
      <trkpt lat="46.45421" lon="-0.84353">
        <ele>17.799999237061</ele>
        <time>2015-01-12T09:18:29.000Z</time>
      </trkpt>
      <trkpt lat="46.45418" lon="-0.84379">
        <ele>19</ele>
        <time>2015-01-12T09:18:42.000Z</time>
      </trkpt>
      <trkpt lat="46.45417" lon="-0.84405">
        <ele>20.200000762939</ele>
        <time>2015-01-12T09:18:54.000Z</time>
      </trkpt>
      <trkpt lat="46.45417" lon="-0.8443">
        <ele>21.799999237061</ele>
        <time>2015-01-12T09:19:05.000Z</time>
      </trkpt>
      <trkpt lat="46.45418" lon="-0.84451">
        <ele>23.200000762939</ele>
        <time>2015-01-12T09:19:15.000Z</time>
      </trkpt>
      <trkpt lat="46.4542" lon="-0.84473">
        <ele>23.200000762939</ele>
        <time>2015-01-12T09:19:25.000Z</time>
      </trkpt>
      <trkpt lat="46.45424" lon="-0.84499">
        <ele>24.799999237061</ele>
        <time>2015-01-12T09:19:37.000Z</time>
      </trkpt>
      <trkpt lat="46.45429" lon="-0.84522">
        <ele>26.39999961853</ele>
        <time>2015-01-12T09:19:48.000Z</time>
      </trkpt>
      <trkpt lat="46.45434" lon="-0.84547">
        <ele>27.60000038147</ele>
        <time>2015-01-12T09:20:00.000Z</time>
      </trkpt>
      <trkpt lat="46.45439" lon="-0.84574">
        <ele>29.39999961853</ele>
        <time>2015-01-12T09:20:12.000Z</time>
      </trkpt>
      <trkpt lat="46.45443" lon="-0.84599">
        <ele>31.200000762939</ele>
        <time>2015-01-12T09:20:23.000Z</time>
      </trkpt>
      <trkpt lat="46.45441" lon="-0.84617">
        <ele>32.200000762939</ele>
        <time>2015-01-12T09:20:31.000Z</time>
      </trkpt>
      <trkpt lat="46.45435" lon="-0.84636">
        <ele>33.400001525879</ele>
        <time>2015-01-12T09:20:40.000Z</time>
      </trkpt>
      <trkpt lat="46.45425" lon="-0.84651">
        <ele>34.200000762939</ele>
        <time>2015-01-12T09:20:49.000Z</time>
      </trkpt>
      <trkpt lat="46.45413" lon="-0.8467">
        <ele>35</ele>
        <time>2015-01-12T09:21:00.000Z</time>
      </trkpt>
      <trkpt lat="46.45403" lon="-0.84685">
        <ele>35.599998474121</ele>
        <time>2015-01-12T09:21:10.000Z</time>
      </trkpt>
      <trkpt lat="46.45392" lon="-0.847">
        <ele>36.200000762939</ele>
        <time>2015-01-12T09:21:21.000Z</time>
      </trkpt>
      <trkpt lat="46.45381" lon="-0.84717">
        <ele>36.799999237061</ele>
        <time>2015-01-12T09:21:33.000Z</time>
      </trkpt>
      <trkpt lat="46.45373" lon="-0.84734">
        <ele>37.200000762939</ele>
        <time>2015-01-12T09:21:43.000Z</time>
      </trkpt>
      <trkpt lat="46.45368" lon="-0.84748">
        <ele>37.599998474121</ele>
        <time>2015-01-12T09:21:51.000Z</time>
      </trkpt>
      <trkpt lat="46.45365" lon="-0.84766">
        <ele>38.200000762939</ele>
        <time>2015-01-12T09:22:00.000Z</time>
      </trkpt>
      <trkpt lat="46.45361" lon="-0.84786">
        <ele>38.799999237061</ele>
        <time>2015-01-12T09:22:10.000Z</time>
      </trkpt>
      <trkpt lat="46.45358" lon="-0.84809">
        <ele>39.400001525879</ele>
        <time>2015-01-12T09:22:21.000Z</time>
      </trkpt>
      <trkpt lat="46.45358" lon="-0.84832">
        <ele>39.200000762939</ele>
        <time>2015-01-12T09:22:32.000Z</time>
      </trkpt>
      <trkpt lat="46.45361" lon="-0.84858">
        <ele>39</ele>
        <time>2015-01-12T09:22:44.000Z</time>
      </trkpt>
      <trkpt lat="46.45365" lon="-0.84882">
        <ele>38.599998474121</ele>
        <time>2015-01-12T09:22:56.000Z</time>
      </trkpt>
      <trkpt lat="46.45371" lon="-0.84908">
        <ele>37.799999237061</ele>
        <time>2015-01-12T09:23:09.000Z</time>
      </trkpt>
      <trkpt lat="46.45378" lon="-0.84912">
        <ele>37.599998474121</ele>
        <time>2015-01-12T09:23:16.000Z</time>
      </trkpt>
      <trkpt lat="46.45381" lon="-0.84913">
        <ele>37.799999237061</ele>
        <time>2015-01-12T09:23:22.000Z</time>
      </trkpt>
      <trkpt lat="46.45383" lon="-0.84911">
        <ele>38</ele>
        <time>2015-01-12T09:23:35.000Z</time>
      </trkpt>
      <trkpt lat="46.45383" lon="-0.84912">
        <ele>38</ele>
        <time>2015-01-12T09:24:08.000Z</time>
      </trkpt>
      <trkpt lat="46.45385" lon="-0.84912">
        <ele>38</ele>
        <time>2015-01-12T09:24:27.000Z</time>
      </trkpt>
      <trkpt lat="46.4539" lon="-0.84913">
        <ele>38.200000762939</ele>
        <time>2015-01-12T09:24:38.000Z</time>
      </trkpt>
      <trkpt lat="46.45396" lon="-0.84912">
        <ele>38.599998474121</ele>
        <time>2015-01-12T09:24:45.000Z</time>
      </trkpt>
      <trkpt lat="46.45405" lon="-0.84912">
        <ele>38.599998474121</ele>
        <time>2015-01-12T09:24:54.000Z</time>
      </trkpt>
      <trkpt lat="46.45412" lon="-0.84911">
        <ele>38.599998474121</ele>
        <time>2015-01-12T09:25:00.000Z</time>
      </trkpt>
      <trkpt lat="46.45423" lon="-0.84909">
        <ele>38.400001525879</ele>
        <time>2015-01-12T09:25:09.000Z</time>
      </trkpt>
      <trkpt lat="46.45433" lon="-0.84908">
        <ele>38.400001525879</ele>
        <time>2015-01-12T09:25:17.000Z</time>
      </trkpt>
      <trkpt lat="46.45444" lon="-0.84907">
        <ele>38.200000762939</ele>
        <time>2015-01-12T09:25:26.000Z</time>
      </trkpt>
      <trkpt lat="46.45456" lon="-0.84905">
        <ele>38.200000762939</ele>
        <time>2015-01-12T09:25:35.000Z</time>
      </trkpt>
      <trkpt lat="46.45465" lon="-0.84904">
        <ele>38</ele>
        <time>2015-01-12T09:25:42.000Z</time>
      </trkpt>
      <trkpt lat="46.45476" lon="-0.84902">
        <ele>38</ele>
        <time>2015-01-12T09:25:50.000Z</time>
      </trkpt>
      <trkpt lat="46.45488" lon="-0.849">
        <ele>38</ele>
        <time>2015-01-12T09:25:59.000Z</time>
      </trkpt>
      <trkpt lat="46.45491" lon="-0.849">
        <ele>38.200000762939</ele>
        <time>2015-01-12T09:26:01.000Z</time>
      </trkpt>
      <trkpt lat="46.45501" lon="-0.84899">
        <ele>38.599998474121</ele>
        <time>2015-01-12T09:26:09.000Z</time>
      </trkpt>
      <trkpt lat="46.45517" lon="-0.84897">
        <ele>39.200000762939</ele>
        <time>2015-01-12T09:26:21.000Z</time>
      </trkpt>
      <trkpt lat="46.45531" lon="-0.84895">
        <ele>39.599998474121</ele>
        <time>2015-01-12T09:26:31.000Z</time>
      </trkpt>
      <trkpt lat="46.45541" lon="-0.84894">
        <ele>40</ele>
        <time>2015-01-12T09:26:39.000Z</time>
      </trkpt>
      <trkpt lat="46.45549" lon="-0.84892">
        <ele>40.400001525879</ele>
        <time>2015-01-12T09:26:45.000Z</time>
      </trkpt>
      <trkpt lat="46.4556" lon="-0.8489">
        <ele>40.799999237061</ele>
        <time>2015-01-12T09:26:53.000Z</time>
      </trkpt>
      <trkpt lat="46.45569" lon="-0.84889">
        <ele>41</ele>
        <time>2015-01-12T09:27:00.000Z</time>
      </trkpt>
      <trkpt lat="46.45583" lon="-0.84887">
        <ele>41.400001525879</ele>
        <time>2015-01-12T09:27:10.000Z</time>
      </trkpt>
      <trkpt lat="46.45594" lon="-0.84885">
        <ele>41.799999237061</ele>
        <time>2015-01-12T09:27:18.000Z</time>
      </trkpt>
      <trkpt lat="46.45609" lon="-0.84883">
        <ele>42.200000762939</ele>
        <time>2015-01-12T09:27:29.000Z</time>
      </trkpt>
      <trkpt lat="46.45624" lon="-0.84881">
        <ele>42.400001525879</ele>
        <time>2015-01-12T09:27:40.000Z</time>
      </trkpt>
      <trkpt lat="46.45638" lon="-0.8488">
        <ele>42.799999237061</ele>
        <time>2015-01-12T09:27:49.000Z</time>
      </trkpt>
      <trkpt lat="46.45653" lon="-0.84878">
        <ele>43</ele>
        <time>2015-01-12T09:27:59.000Z</time>
      </trkpt>
      <trkpt lat="46.45668" lon="-0.84876">
        <ele>43</ele>
        <time>2015-01-12T09:28:10.000Z</time>
      </trkpt>
      <trkpt lat="46.45679" lon="-0.84873">
        <ele>43</ele>
        <time>2015-01-12T09:28:18.000Z</time>
      </trkpt>
      <trkpt lat="46.45691" lon="-0.84873">
        <ele>43</ele>
        <time>2015-01-12T09:28:26.000Z</time>
      </trkpt>
      <trkpt lat="46.45704" lon="-0.84872">
        <ele>43.200000762939</ele>
        <time>2015-01-12T09:28:35.000Z</time>
      </trkpt>
      <trkpt lat="46.45716" lon="-0.84871">
        <ele>43.400001525879</ele>
        <time>2015-01-12T09:28:43.000Z</time>
      </trkpt>
      <trkpt lat="46.45729" lon="-0.8487">
        <ele>43.400001525879</ele>
        <time>2015-01-12T09:28:52.000Z</time>
      </trkpt>
      <trkpt lat="46.45741" lon="-0.84869">
        <ele>43.200000762939</ele>
        <time>2015-01-12T09:29:00.000Z</time>
      </trkpt>
      <trkpt lat="46.45759" lon="-0.84869">
        <ele>42.200000762939</ele>
        <time>2015-01-12T09:29:12.000Z</time>
      </trkpt>
      <trkpt lat="46.45772" lon="-0.84868">
        <ele>41.599998474121</ele>
        <time>2015-01-12T09:29:21.000Z</time>
      </trkpt>
      <trkpt lat="46.45783" lon="-0.84867">
        <ele>41</ele>
        <time>2015-01-12T09:29:28.000Z</time>
      </trkpt>
      <trkpt lat="46.45799" lon="-0.84867">
        <ele>40.200000762939</ele>
        <time>2015-01-12T09:29:39.000Z</time>
      </trkpt>
      <trkpt lat="46.45812" lon="-0.84868">
        <ele>39.599998474121</ele>
        <time>2015-01-12T09:29:48.000Z</time>
      </trkpt>
      <trkpt lat="46.45825" lon="-0.84869">
        <ele>39</ele>
        <time>2015-01-12T09:29:57.000Z</time>
      </trkpt>
      <trkpt lat="46.45838" lon="-0.84871">
        <ele>38.200000762939</ele>
        <time>2015-01-12T09:30:07.000Z</time>
      </trkpt>
      <trkpt lat="46.45852" lon="-0.84874">
        <ele>37.200000762939</ele>
        <time>2015-01-12T09:30:16.000Z</time>
      </trkpt>
      <trkpt lat="46.45866" lon="-0.84878">
        <ele>36.200000762939</ele>
        <time>2015-01-12T09:30:26.000Z</time>
      </trkpt>
      <trkpt lat="46.45881" lon="-0.84885">
        <ele>35.200000762939</ele>
        <time>2015-01-12T09:30:37.000Z</time>
      </trkpt>
      <trkpt lat="46.45892" lon="-0.84891">
        <ele>34.599998474121</ele>
        <time>2015-01-12T09:30:45.000Z</time>
      </trkpt>
      <trkpt lat="46.45907" lon="-0.84898">
        <ele>34</ele>
        <time>2015-01-12T09:30:55.000Z</time>
      </trkpt>
      <trkpt lat="46.45918" lon="-0.84904">
        <ele>33.599998474121</ele>
        <time>2015-01-12T09:31:03.000Z</time>
      </trkpt>
      <trkpt lat="46.45946" lon="-0.84915">
        <ele>33</ele>
        <time>2015-01-12T09:31:21.000Z</time>
      </trkpt>
      <trkpt lat="46.45961" lon="-0.84921">
        <ele>32.200000762939</ele>
        <time>2015-01-12T09:31:31.000Z</time>
      </trkpt>
      <trkpt lat="46.45977" lon="-0.84928">
        <ele>31</ele>
        <time>2015-01-12T09:31:42.000Z</time>
      </trkpt>
      <trkpt lat="46.4599" lon="-0.84935">
        <ele>30</ele>
        <time>2015-01-12T09:31:51.000Z</time>
      </trkpt>
      <trkpt lat="46.46003" lon="-0.84944">
        <ele>29.39999961853</ele>
        <time>2015-01-12T09:32:01.000Z</time>
      </trkpt>
      <trkpt lat="46.46018" lon="-0.84943">
        <ele>28.799999237061</ele>
        <time>2015-01-12T09:32:11.000Z</time>
      </trkpt>
      <trkpt lat="46.46033" lon="-0.84934">
        <ele>28.39999961853</ele>
        <time>2015-01-12T09:32:21.000Z</time>
      </trkpt>
      <trkpt lat="46.46049" lon="-0.8492">
        <ele>27.799999237061</ele>
        <time>2015-01-12T09:32:33.000Z</time>
      </trkpt>
      <trkpt lat="46.46063" lon="-0.84901">
        <ele>27.200000762939</ele>
        <time>2015-01-12T09:32:45.000Z</time>
      </trkpt>
      <trkpt lat="46.46073" lon="-0.84883">
        <ele>26.60000038147</ele>
        <time>2015-01-12T09:32:55.000Z</time>
      </trkpt>
      <trkpt lat="46.46082" lon="-0.84864">
        <ele>25.799999237061</ele>
        <time>2015-01-12T09:33:05.000Z</time>
      </trkpt>
      <trkpt lat="46.46093" lon="-0.84847">
        <ele>25</ele>
        <time>2015-01-12T09:33:15.000Z</time>
      </trkpt>
      <trkpt lat="46.46106" lon="-0.84834">
        <ele>24.200000762939</ele>
        <time>2015-01-12T09:33:25.000Z</time>
      </trkpt>
      <trkpt lat="46.46118" lon="-0.84824">
        <ele>23.60000038147</ele>
        <time>2015-01-12T09:33:34.000Z</time>
      </trkpt>
      <trkpt lat="46.4613" lon="-0.84816">
        <ele>23</ele>
        <time>2015-01-12T09:33:43.000Z</time>
      </trkpt>
      <trkpt lat="46.46139" lon="-0.84811">
        <ele>22.39999961853</ele>
        <time>2015-01-12T09:33:51.000Z</time>
      </trkpt>
      <trkpt lat="46.46146" lon="-0.84799">
        <ele>22.200000762939</ele>
        <time>2015-01-12T09:33:59.000Z</time>
      </trkpt>
      <trkpt lat="46.46147" lon="-0.84785">
        <ele>22.200000762939</ele>
        <time>2015-01-12T09:34:06.000Z</time>
      </trkpt>
      <trkpt lat="46.4614" lon="-0.84761">
        <ele>22.39999961853</ele>
        <time>2015-01-12T09:34:18.000Z</time>
      </trkpt>
      <trkpt lat="46.4613" lon="-0.8474">
        <ele>22.60000038147</ele>
        <time>2015-01-12T09:34:30.000Z</time>
      </trkpt>
      <trkpt lat="46.4612" lon="-0.84721">
        <ele>22</ele>
        <time>2015-01-12T09:34:41.000Z</time>
      </trkpt>
      <trkpt lat="46.46114" lon="-0.84703">
        <ele>21.39999961853</ele>
        <time>2015-01-12T09:34:50.000Z</time>
      </trkpt>
      <trkpt lat="46.46112" lon="-0.84678">
        <ele>20.39999961853</ele>
        <time>2015-01-12T09:35:01.000Z</time>
      </trkpt>
      <trkpt lat="46.46114" lon="-0.84655">
        <ele>20</ele>
        <time>2015-01-12T09:35:11.000Z</time>
      </trkpt>
      <trkpt lat="46.46118" lon="-0.84635">
        <ele>19.799999237061</ele>
        <time>2015-01-12T09:35:20.000Z</time>
      </trkpt>
      <trkpt lat="46.46122" lon="-0.84617">
        <ele>19.60000038147</ele>
        <time>2015-01-12T09:35:28.000Z</time>
      </trkpt>
      <trkpt lat="46.46128" lon="-0.84596">
        <ele>19.60000038147</ele>
        <time>2015-01-12T09:35:38.000Z</time>
      </trkpt>
      <trkpt lat="46.46132" lon="-0.84579">
        <ele>19.39999961853</ele>
        <time>2015-01-12T09:35:46.000Z</time>
      </trkpt>
      <trkpt lat="46.46134" lon="-0.84564">
        <ele>19.39999961853</ele>
        <time>2015-01-12T09:35:53.000Z</time>
      </trkpt>
      <trkpt lat="46.46133" lon="-0.84531">
        <ele>19.60000038147</ele>
        <time>2015-01-12T09:36:09.000Z</time>
      </trkpt>
      <trkpt lat="46.46133" lon="-0.84512">
        <ele>20</ele>
        <time>2015-01-12T09:36:18.000Z</time>
      </trkpt>
      <trkpt lat="46.46134" lon="-0.84499">
        <ele>20</ele>
        <time>2015-01-12T09:36:24.000Z</time>
      </trkpt>
      <trkpt lat="46.46135" lon="-0.8448">
        <ele>20</ele>
        <time>2015-01-12T09:36:32.000Z</time>
      </trkpt>
      <trkpt lat="46.46135" lon="-0.84463">
        <ele>19.799999237061</ele>
        <time>2015-01-12T09:36:40.000Z</time>
      </trkpt>
      <trkpt lat="46.46136" lon="-0.84445">
        <ele>19.60000038147</ele>
        <time>2015-01-12T09:36:48.000Z</time>
      </trkpt>
      <trkpt lat="46.46136" lon="-0.84427">
        <ele>19.39999961853</ele>
        <time>2015-01-12T09:36:56.000Z</time>
      </trkpt>
      <trkpt lat="46.46137" lon="-0.84406">
        <ele>19.200000762939</ele>
        <time>2015-01-12T09:37:05.000Z</time>
      </trkpt>
      <trkpt lat="46.46141" lon="-0.84388">
        <ele>18.799999237061</ele>
        <time>2015-01-12T09:37:13.000Z</time>
      </trkpt>
      <trkpt lat="46.46144" lon="-0.84372">
        <ele>18.799999237061</ele>
        <time>2015-01-12T09:37:21.000Z</time>
      </trkpt>
      <trkpt lat="46.46152" lon="-0.84346">
        <ele>18.60000038147</ele>
        <time>2015-01-12T09:37:33.000Z</time>
      </trkpt>
      <trkpt lat="46.46156" lon="-0.84328">
        <ele>18.60000038147</ele>
        <time>2015-01-12T09:37:41.000Z</time>
      </trkpt>
      <trkpt lat="46.46156" lon="-0.84307">
        <ele>18.39999961853</ele>
        <time>2015-01-12T09:37:50.000Z</time>
      </trkpt>
      <trkpt lat="46.46153" lon="-0.84284">
        <ele>17.60000038147</ele>
        <time>2015-01-12T09:38:00.000Z</time>
      </trkpt>
      <trkpt lat="46.46149" lon="-0.84267">
        <ele>17</ele>
        <time>2015-01-12T09:38:08.000Z</time>
      </trkpt>
      <trkpt lat="46.46147" lon="-0.8425">
        <ele>16.60000038147</ele>
        <time>2015-01-12T09:38:16.000Z</time>
      </trkpt>
      <trkpt lat="46.4615" lon="-0.8423">
        <ele>16.200000762939</ele>
        <time>2015-01-12T09:38:25.000Z</time>
      </trkpt>
      <trkpt lat="46.4615" lon="-0.84228">
        <ele>16.200000762939</ele>
        <time>2015-01-12T09:38:26.000Z</time>
      </trkpt>
      <trkpt lat="46.46156" lon="-0.8422">
        <ele>16.200000762939</ele>
        <time>2015-01-12T09:38:31.000Z</time>
      </trkpt>
      <trkpt lat="46.46158" lon="-0.84219">
        <ele>16.200000762939</ele>
        <time>2015-01-12T09:38:32.000Z</time>
      </trkpt>
      <trkpt lat="46.46164" lon="-0.84205">
        <ele>16.200000762939</ele>
        <time>2015-01-12T09:38:45.000Z</time>
      </trkpt>
      <trkpt lat="46.4616" lon="-0.8419">
        <ele>16.200000762939</ele>
        <time>2015-01-12T09:38:48.000Z</time>
      </trkpt>
      <trkpt lat="46.46162" lon="-0.84164">
        <ele>16.200000762939</ele>
        <time>2015-01-12T09:38:57.000Z</time>
      </trkpt>
      <trkpt lat="46.46165" lon="-0.8414">
        <ele>16.200000762939</ele>
        <time>2015-01-12T09:39:07.000Z</time>
      </trkpt>
      <trkpt lat="46.46166" lon="-0.84116">
        <ele>15</ele>
        <time>2015-01-12T09:39:17.000Z</time>
      </trkpt>
      <trkpt lat="46.46169" lon="-0.84095">
        <ele>14.199999809265</ele>
        <time>2015-01-12T09:39:26.000Z</time>
      </trkpt>
      <trkpt lat="46.46172" lon="-0.8408">
        <ele>13.60000038147</ele>
        <time>2015-01-12T09:39:33.000Z</time>
      </trkpt>
      <trkpt lat="46.46178" lon="-0.84062">
        <ele>12.800000190735</ele>
        <time>2015-01-12T09:39:42.000Z</time>
      </trkpt>
      <trkpt lat="46.46186" lon="-0.84045">
        <ele>11.800000190735</ele>
        <time>2015-01-12T09:39:51.000Z</time>
      </trkpt>
      <trkpt lat="46.46196" lon="-0.84037">
        <ele>11.39999961853</ele>
        <time>2015-01-12T09:39:58.000Z</time>
      </trkpt>
      <trkpt lat="46.46209" lon="-0.84032">
        <ele>10.800000190735</ele>
        <time>2015-01-12T09:40:07.000Z</time>
      </trkpt>
      <trkpt lat="46.46226" lon="-0.84031">
        <ele>10.60000038147</ele>
        <time>2015-01-12T09:40:18.000Z</time>
      </trkpt>
      <trkpt lat="46.46239" lon="-0.84031">
        <ele>10.39999961853</ele>
        <time>2015-01-12T09:40:26.000Z</time>
      </trkpt>
      <trkpt lat="46.46256" lon="-0.8403">
        <ele>10.199999809265</ele>
        <time>2015-01-12T09:40:37.000Z</time>
      </trkpt>
      <trkpt lat="46.4627" lon="-0.84027">
        <ele>9.3999996185303</ele>
        <time>2015-01-12T09:40:45.000Z</time>
      </trkpt>
      <trkpt lat="46.46281" lon="-0.84019">
        <ele>8.6000003814697</ele>
        <time>2015-01-12T09:40:53.000Z</time>
      </trkpt>
      <trkpt lat="46.46304" lon="-0.83986">
        <ele>6.8000001907349</ele>
        <time>2015-01-12T09:41:13.000Z</time>
      </trkpt>
      <trkpt lat="46.46308" lon="-0.83978">
        <ele>6.4000000953674</ele>
        <time>2015-01-12T09:41:17.000Z</time>
      </trkpt>
      <trkpt lat="46.46316" lon="-0.83968">
        <ele>6</ele>
        <time>2015-01-12T09:41:24.000Z</time>
      </trkpt>
      <trkpt lat="46.46318" lon="-0.83966">
        <ele>6</ele>
        <time>2015-01-12T09:41:25.000Z</time>
      </trkpt>
      <trkpt lat="46.46329" lon="-0.8395">
        <ele>5.8000001907349</ele>
        <time>2015-01-12T09:41:35.000Z</time>
      </trkpt>
      <trkpt lat="46.46337" lon="-0.83939">
        <ele>5.5999999046326</ele>
        <time>2015-01-12T09:41:43.000Z</time>
      </trkpt>
      <trkpt lat="46.46348" lon="-0.83923">
        <ele>5.4000000953674</ele>
        <time>2015-01-12T09:41:53.000Z</time>
      </trkpt>
      <trkpt lat="46.46361" lon="-0.83906">
        <ele>5.1999998092651</ele>
        <time>2015-01-12T09:42:04.000Z</time>
      </trkpt>
      <trkpt lat="46.46373" lon="-0.83891">
        <ele>5</ele>
        <time>2015-01-12T09:42:14.000Z</time>
      </trkpt>
      <trkpt lat="46.46381" lon="-0.83875">
        <ele>5.1999998092651</ele>
        <time>2015-01-12T09:42:23.000Z</time>
      </trkpt>
      <trkpt lat="46.46385" lon="-0.83867">
        <ele>5.1999998092651</ele>
        <time>2015-01-12T09:42:31.000Z</time>
      </trkpt>
      <trkpt lat="46.46389" lon="-0.8386">
        <ele>5.4000000953674</ele>
        <time>2015-01-12T09:42:38.000Z</time>
      </trkpt>
      <trkpt lat="46.46396" lon="-0.83849">
        <ele>5.4000000953674</ele>
        <time>2015-01-12T09:42:45.000Z</time>
      </trkpt>
      <trkpt lat="46.46402" lon="-0.83834">
        <ele>5.8000001907349</ele>
        <time>2015-01-12T09:42:53.000Z</time>
      </trkpt>
      <trkpt lat="46.46406" lon="-0.8382">
        <ele>6</ele>
        <time>2015-01-12T09:43:00.000Z</time>
      </trkpt>
      <trkpt lat="46.46411" lon="-0.83796">
        <ele>6.5999999046326</ele>
        <time>2015-01-12T09:43:11.000Z</time>
      </trkpt>
      <trkpt lat="46.46416" lon="-0.83774">
        <ele>8</ele>
        <time>2015-01-12T09:43:21.000Z</time>
      </trkpt>
      <trkpt lat="46.4642" lon="-0.83751">
        <ele>9.8000001907349</ele>
        <time>2015-01-12T09:43:31.000Z</time>
      </trkpt>
      <trkpt lat="46.46424" lon="-0.8373">
        <ele>11.39999961853</ele>
        <time>2015-01-12T09:43:41.000Z</time>
      </trkpt>
      <trkpt lat="46.46418" lon="-0.83721">
        <ele>12.39999961853</ele>
        <time>2015-01-12T09:43:47.000Z</time>
      </trkpt>
      <trkpt lat="46.46405" lon="-0.83716">
        <ele>13.199999809265</ele>
        <time>2015-01-12T09:43:55.000Z</time>
      </trkpt>
      <trkpt lat="46.46391" lon="-0.83706">
        <ele>13.39999961853</ele>
        <time>2015-01-12T09:44:05.000Z</time>
      </trkpt>
      <trkpt lat="46.46378" lon="-0.83692">
        <ele>13.60000038147</ele>
        <time>2015-01-12T09:44:16.000Z</time>
      </trkpt>
      <trkpt lat="46.46373" lon="-0.83676">
        <ele>14.199999809265</ele>
        <time>2015-01-12T09:44:24.000Z</time>
      </trkpt>
      <trkpt lat="46.46372" lon="-0.83657">
        <ele>15.39999961853</ele>
        <time>2015-01-12T09:44:33.000Z</time>
      </trkpt>
      <trkpt lat="46.46366" lon="-0.83643">
        <ele>16.200000762939</ele>
        <time>2015-01-12T09:44:40.000Z</time>
      </trkpt>
      <trkpt lat="46.46362" lon="-0.83634">
        <ele>16.39999961853</ele>
        <time>2015-01-12T09:44:45.000Z</time>
      </trkpt>
      <trkpt lat="46.46353" lon="-0.83619">
        <ele>17</ele>
        <time>2015-01-12T09:44:54.000Z</time>
      </trkpt>
      <trkpt lat="46.46348" lon="-0.83608">
        <ele>17.39999961853</ele>
        <time>2015-01-12T09:45:00.000Z</time>
      </trkpt>
      <trkpt lat="46.46341" lon="-0.83593">
        <ele>18.200000762939</ele>
        <time>2015-01-12T09:45:09.000Z</time>
      </trkpt>
      <trkpt lat="46.4633" lon="-0.8357">
        <ele>19.39999961853</ele>
        <time>2015-01-12T09:45:21.000Z</time>
      </trkpt>
      <trkpt lat="46.46319" lon="-0.83551">
        <ele>20.200000762939</ele>
        <time>2015-01-12T09:45:31.000Z</time>
      </trkpt>
      <trkpt lat="46.46307" lon="-0.83531">
        <ele>20.39999961853</ele>
        <time>2015-01-12T09:45:42.000Z</time>
      </trkpt>
      <trkpt lat="46.46302" lon="-0.83521">
        <ele>20.39999961853</ele>
        <time>2015-01-12T09:45:47.000Z</time>
      </trkpt>
      <trkpt lat="46.46297" lon="-0.83512">
        <ele>20.39999961853</ele>
        <time>2015-01-12T09:45:52.000Z</time>
      </trkpt>
      <trkpt lat="46.46286" lon="-0.83492">
        <ele>20.60000038147</ele>
        <time>2015-01-12T09:46:02.000Z</time>
      </trkpt>
      <trkpt lat="46.46277" lon="-0.83476">
        <ele>21.799999237061</ele>
        <time>2015-01-12T09:46:11.000Z</time>
      </trkpt>
      <trkpt lat="46.46266" lon="-0.83455">
        <ele>22</ele>
        <time>2015-01-12T09:46:22.000Z</time>
      </trkpt>
      <trkpt lat="46.46254" lon="-0.83437">
        <ele>23.200000762939</ele>
        <time>2015-01-12T09:46:32.000Z</time>
      </trkpt>
      <trkpt lat="46.46244" lon="-0.83424">
        <ele>25.60000038147</ele>
        <time>2015-01-12T09:46:40.000Z</time>
      </trkpt>
      <trkpt lat="46.46233" lon="-0.83411">
        <ele>27.799999237061</ele>
        <time>2015-01-12T09:46:49.000Z</time>
      </trkpt>
      <trkpt lat="46.46222" lon="-0.83397">
        <ele>29</ele>
        <time>2015-01-12T09:46:58.000Z</time>
      </trkpt>
      <trkpt lat="46.46211" lon="-0.83383">
        <ele>30.200000762939</ele>
        <time>2015-01-12T09:47:07.000Z</time>
      </trkpt>
      <trkpt lat="46.46202" lon="-0.83371">
        <ele>30.39999961853</ele>
        <time>2015-01-12T09:47:14.000Z</time>
      </trkpt>
      <trkpt lat="46.46189" lon="-0.83353">
        <ele>30.60000038147</ele>
        <time>2015-01-12T09:47:25.000Z</time>
      </trkpt>
      <trkpt lat="46.4618" lon="-0.83337">
        <ele>33</ele>
        <time>2015-01-12T09:47:33.000Z</time>
      </trkpt>
      <trkpt lat="46.46172" lon="-0.83321">
        <ele>35.599998474121</ele>
        <time>2015-01-12T09:47:41.000Z</time>
      </trkpt>
      <trkpt lat="46.46163" lon="-0.833">
        <ele>38.599998474121</ele>
        <time>2015-01-12T09:47:51.000Z</time>
      </trkpt>
      <trkpt lat="46.46154" lon="-0.83277">
        <ele>39.200000762939</ele>
        <time>2015-01-12T09:48:02.000Z</time>
      </trkpt>
      <trkpt lat="46.46146" lon="-0.8325">
        <ele>39.599998474121</ele>
        <time>2015-01-12T09:48:14.000Z</time>
      </trkpt>
      <trkpt lat="46.46139" lon="-0.83226">
        <ele>40.200000762939</ele>
        <time>2015-01-12T09:48:24.000Z</time>
      </trkpt>
      <trkpt lat="46.4613" lon="-0.83202">
        <ele>41.200000762939</ele>
        <time>2015-01-12T09:48:36.000Z</time>
      </trkpt>
      <trkpt lat="46.46127" lon="-0.83196">
        <ele>41.400001525879</ele>
        <time>2015-01-12T09:48:41.000Z</time>
      </trkpt>
      <trkpt lat="46.46126" lon="-0.83193">
        <ele>41.599998474121</ele>
        <time>2015-01-12T09:48:48.000Z</time>
      </trkpt>
      <trkpt lat="46.46126" lon="-0.83197">
        <ele>41.400001525879</ele>
        <time>2015-01-12T09:49:59.000Z</time>
      </trkpt>
      <trkpt lat="46.46125" lon="-0.8319">
        <ele>41.799999237061</ele>
        <time>2015-01-12T09:51:44.000Z</time>
      </trkpt>
      <trkpt lat="46.46125" lon="-0.83189">
        <ele>41.799999237061</ele>
        <time>2015-01-12T09:52:15.000Z</time>
      </trkpt>
      <trkpt lat="46.46124" lon="-0.83182">
        <ele>42</ele>
        <time>2015-01-12T09:53:18.000Z</time>
      </trkpt>
      <trkpt lat="46.46118" lon="-0.83166">
        <ele>42.799999237061</ele>
        <time>2015-01-12T09:53:28.000Z</time>
      </trkpt>
      <trkpt lat="46.4611" lon="-0.83148">
        <ele>43.200000762939</ele>
        <time>2015-01-12T09:53:38.000Z</time>
      </trkpt>
      <trkpt lat="46.46105" lon="-0.83134">
        <ele>43.400001525879</ele>
        <time>2015-01-12T09:53:48.000Z</time>
      </trkpt>
      <trkpt lat="46.46103" lon="-0.83127">
        <ele>43.400001525879</ele>
        <time>2015-01-12T09:53:58.000Z</time>
      </trkpt>
      <trkpt lat="46.46099" lon="-0.83113">
        <ele>43.200000762939</ele>
        <time>2015-01-12T09:54:07.000Z</time>
      </trkpt>
      <trkpt lat="46.46097" lon="-0.83105">
        <ele>43.200000762939</ele>
        <time>2015-01-12T09:54:13.000Z</time>
      </trkpt>
      <trkpt lat="46.4609" lon="-0.83087">
        <ele>42.799999237061</ele>
        <time>2015-01-12T09:54:24.000Z</time>
      </trkpt>
      <trkpt lat="46.46086" lon="-0.83076">
        <ele>42.400001525879</ele>
        <time>2015-01-12T09:54:31.000Z</time>
      </trkpt>
      <trkpt lat="46.46085" lon="-0.83074">
        <ele>42.400001525879</ele>
        <time>2015-01-12T09:54:33.000Z</time>
      </trkpt>
      <trkpt lat="46.46085" lon="-0.83072">
        <ele>42.400001525879</ele>
        <time>2015-01-12T09:54:45.000Z</time>
      </trkpt>
      <trkpt lat="46.46081" lon="-0.83075">
        <ele>42.400001525879</ele>
        <time>2015-01-12T09:56:11.000Z</time>
      </trkpt>
      <trkpt lat="46.46066" lon="-0.83084">
        <ele>42.599998474121</ele>
        <time>2015-01-12T09:56:23.000Z</time>
      </trkpt>
      <trkpt lat="46.46054" lon="-0.83091">
        <ele>42.400001525879</ele>
        <time>2015-01-12T09:56:33.000Z</time>
      </trkpt>
      <trkpt lat="46.46038" lon="-0.83104">
        <ele>41.799999237061</ele>
        <time>2015-01-12T09:56:45.000Z</time>
      </trkpt>
      <trkpt lat="46.46023" lon="-0.83114">
        <ele>41.400001525879</ele>
        <time>2015-01-12T09:56:56.000Z</time>
      </trkpt>
      <trkpt lat="46.46009" lon="-0.83123">
        <ele>40.799999237061</ele>
        <time>2015-01-12T09:57:06.000Z</time>
      </trkpt>
      <trkpt lat="46.45994" lon="-0.83135">
        <ele>40.400001525879</ele>
        <time>2015-01-12T09:57:17.000Z</time>
      </trkpt>
      <trkpt lat="46.4598" lon="-0.83147">
        <ele>39.599998474121</ele>
        <time>2015-01-12T09:57:28.000Z</time>
      </trkpt>
      <trkpt lat="46.45968" lon="-0.8316">
        <ele>38.400001525879</ele>
        <time>2015-01-12T09:57:38.000Z</time>
      </trkpt>
      <trkpt lat="46.45955" lon="-0.83178">
        <ele>37</ele>
        <time>2015-01-12T09:57:51.000Z</time>
      </trkpt>
      <trkpt lat="46.45949" lon="-0.83187">
        <ele>36.400001525879</ele>
        <time>2015-01-12T09:57:57.000Z</time>
      </trkpt>
      <trkpt lat="46.4594" lon="-0.83197">
        <ele>35.599998474121</ele>
        <time>2015-01-12T09:58:06.000Z</time>
      </trkpt>
      <trkpt lat="46.45929" lon="-0.832">
        <ele>34.599998474121</ele>
        <time>2015-01-12T09:58:14.000Z</time>
      </trkpt>
      <trkpt lat="46.45921" lon="-0.8319">
        <ele>34.400001525879</ele>
        <time>2015-01-12T09:58:22.000Z</time>
      </trkpt>
      <trkpt lat="46.45914" lon="-0.83173">
        <ele>34.599998474121</ele>
        <time>2015-01-12T09:58:32.000Z</time>
      </trkpt>
      <trkpt lat="46.45907" lon="-0.83157">
        <ele>34.799999237061</ele>
        <time>2015-01-12T09:58:41.000Z</time>
      </trkpt>
      <trkpt lat="46.45899" lon="-0.83138">
        <ele>35</ele>
        <time>2015-01-12T09:58:52.000Z</time>
      </trkpt>
      <trkpt lat="46.45892" lon="-0.83125">
        <ele>34.799999237061</ele>
        <time>2015-01-12T09:59:00.000Z</time>
      </trkpt>
      <trkpt lat="46.45884" lon="-0.83106">
        <ele>34.799999237061</ele>
        <time>2015-01-12T09:59:11.000Z</time>
      </trkpt>
      <trkpt lat="46.45878" lon="-0.83088">
        <ele>35</ele>
        <time>2015-01-12T09:59:21.000Z</time>
      </trkpt>
      <trkpt lat="46.4587" lon="-0.83066">
        <ele>34.599998474121</ele>
        <time>2015-01-12T09:59:33.000Z</time>
      </trkpt>
      <trkpt lat="46.45859" lon="-0.83044">
        <ele>33.799999237061</ele>
        <time>2015-01-12T09:59:45.000Z</time>
      </trkpt>
      <trkpt lat="46.45848" lon="-0.83023">
        <ele>33</ele>
        <time>2015-01-12T09:59:57.000Z</time>
      </trkpt>
      <trkpt lat="46.45838" lon="-0.83005">
        <ele>32.799999237061</ele>
        <time>2015-01-12T10:00:08.000Z</time>
      </trkpt>
      <trkpt lat="46.45826" lon="-0.82983">
        <ele>32.400001525879</ele>
        <time>2015-01-12T10:00:20.000Z</time>
      </trkpt>
      <trkpt lat="46.45815" lon="-0.82963">
        <ele>32</ele>
        <time>2015-01-12T10:00:32.000Z</time>
      </trkpt>
      <trkpt lat="46.45802" lon="-0.82943">
        <ele>31.200000762939</ele>
        <time>2015-01-12T10:00:44.000Z</time>
      </trkpt>
      <trkpt lat="46.45789" lon="-0.82923">
        <ele>30.39999961853</ele>
        <time>2015-01-12T10:00:56.000Z</time>
      </trkpt>
      <trkpt lat="46.45778" lon="-0.82903">
        <ele>30</ele>
        <time>2015-01-12T10:01:07.000Z</time>
      </trkpt>
      <trkpt lat="46.4577" lon="-0.82881">
        <ele>29.799999237061</ele>
        <time>2015-01-12T10:01:18.000Z</time>
      </trkpt>
      <trkpt lat="46.4577" lon="-0.82864">
        <ele>30</ele>
        <time>2015-01-12T10:01:26.000Z</time>
      </trkpt>
      <trkpt lat="46.45776" lon="-0.82855">
        <ele>30.39999961853</ele>
        <time>2015-01-12T10:01:32.000Z</time>
      </trkpt>
      <trkpt lat="46.45788" lon="-0.82843">
        <ele>31.200000762939</ele>
        <time>2015-01-12T10:01:42.000Z</time>
      </trkpt>
      <trkpt lat="46.45798" lon="-0.82833">
        <ele>31.799999237061</ele>
        <time>2015-01-12T10:01:50.000Z</time>
      </trkpt>
      <trkpt lat="46.45807" lon="-0.82824">
        <ele>32.400001525879</ele>
        <time>2015-01-12T10:01:57.000Z</time>
      </trkpt>
      <trkpt lat="46.45811" lon="-0.82816">
        <ele>32.599998474121</ele>
        <time>2015-01-12T10:02:02.000Z</time>
      </trkpt>
      <trkpt lat="46.4582" lon="-0.82799">
        <ele>33</ele>
        <time>2015-01-12T10:02:11.000Z</time>
      </trkpt>
      <trkpt lat="46.45827" lon="-0.82778">
        <ele>33</ele>
        <time>2015-01-12T10:02:21.000Z</time>
      </trkpt>
      <trkpt lat="46.45832" lon="-0.82762">
        <ele>33</ele>
        <time>2015-01-12T10:02:29.000Z</time>
      </trkpt>
      <trkpt lat="46.45839" lon="-0.8274">
        <ele>32.799999237061</ele>
        <time>2015-01-12T10:02:40.000Z</time>
      </trkpt>
      <trkpt lat="46.4585" lon="-0.82721">
        <ele>33</ele>
        <time>2015-01-12T10:02:51.000Z</time>
      </trkpt>
      <trkpt lat="46.45872" lon="-0.82689">
        <ele>33.200000762939</ele>
        <time>2015-01-12T10:03:12.000Z</time>
      </trkpt>
      <trkpt lat="46.45893" lon="-0.82666">
        <ele>33.599998474121</ele>
        <time>2015-01-12T10:03:30.000Z</time>
      </trkpt>
      <trkpt lat="46.45904" lon="-0.82654">
        <ele>33.599998474121</ele>
        <time>2015-01-12T10:03:39.000Z</time>
      </trkpt>
      <trkpt lat="46.45916" lon="-0.8264">
        <ele>33</ele>
        <time>2015-01-12T10:03:48.000Z</time>
      </trkpt>
      <trkpt lat="46.45927" lon="-0.82626">
        <ele>32.599998474121</ele>
        <time>2015-01-12T10:03:57.000Z</time>
      </trkpt>
      <trkpt lat="46.45941" lon="-0.82608">
        <ele>32</ele>
        <time>2015-01-12T10:04:08.000Z</time>
      </trkpt>
      <trkpt lat="46.45947" lon="-0.82592">
        <ele>31.39999961853</ele>
        <time>2015-01-12T10:04:16.000Z</time>
      </trkpt>
      <trkpt lat="46.45947" lon="-0.82569">
        <ele>30.39999961853</ele>
        <time>2015-01-12T10:04:26.000Z</time>
      </trkpt>
      <trkpt lat="46.45946" lon="-0.82545">
        <ele>29.60000038147</ele>
        <time>2015-01-12T10:04:36.000Z</time>
      </trkpt>
      <trkpt lat="46.45949" lon="-0.82523">
        <ele>28.799999237061</ele>
        <time>2015-01-12T10:04:46.000Z</time>
      </trkpt>
      <trkpt lat="46.45957" lon="-0.8251">
        <ele>28.39999961853</ele>
        <time>2015-01-12T10:04:54.000Z</time>
      </trkpt>
      <trkpt lat="46.45969" lon="-0.82496">
        <ele>27.799999237061</ele>
        <time>2015-01-12T10:05:04.000Z</time>
      </trkpt>
      <trkpt lat="46.45983" lon="-0.82485">
        <ele>27.39999961853</ele>
        <time>2015-01-12T10:05:14.000Z</time>
      </trkpt>
      <trkpt lat="46.45997" lon="-0.82473">
        <ele>27.799999237061</ele>
        <time>2015-01-12T10:05:25.000Z</time>
      </trkpt>
      <trkpt lat="46.46013" lon="-0.82459">
        <ele>28.39999961853</ele>
        <time>2015-01-12T10:05:37.000Z</time>
      </trkpt>
      <trkpt lat="46.46025" lon="-0.82449">
        <ele>29</ele>
        <time>2015-01-12T10:05:46.000Z</time>
      </trkpt>
      <trkpt lat="46.46033" lon="-0.82433">
        <ele>29.39999961853</ele>
        <time>2015-01-12T10:05:55.000Z</time>
      </trkpt>
      <trkpt lat="46.46028" lon="-0.8242">
        <ele>29</ele>
        <time>2015-01-12T10:06:03.000Z</time>
      </trkpt>
      <trkpt lat="46.46023" lon="-0.82406">
        <ele>28.200000762939</ele>
        <time>2015-01-12T10:06:11.000Z</time>
      </trkpt>
      <trkpt lat="46.46019" lon="-0.824">
        <ele>28</ele>
        <time>2015-01-12T10:06:16.000Z</time>
      </trkpt>
      <trkpt lat="46.46015" lon="-0.82391">
        <ele>27.39999961853</ele>
        <time>2015-01-12T10:06:24.000Z</time>
      </trkpt>
      <trkpt lat="46.46015" lon="-0.8239">
        <ele>27.39999961853</ele>
        <time>2015-01-12T10:06:25.000Z</time>
      </trkpt>
      <trkpt lat="46.46014" lon="-0.82389">
        <ele>27.200000762939</ele>
        <time>2015-01-12T10:06:27.000Z</time>
      </trkpt>
      <trkpt lat="46.46009" lon="-0.82377">
        <ele>26.799999237061</ele>
        <time>2015-01-12T10:06:35.000Z</time>
      </trkpt>
      <trkpt lat="46.46" lon="-0.82363">
        <ele>26.39999961853</ele>
        <time>2015-01-12T10:06:44.000Z</time>
      </trkpt>
      <trkpt lat="46.4599" lon="-0.82345">
        <ele>26</ele>
        <time>2015-01-12T10:06:55.000Z</time>
      </trkpt>
      <trkpt lat="46.45982" lon="-0.8233">
        <ele>25.60000038147</ele>
        <time>2015-01-12T10:07:04.000Z</time>
      </trkpt>
      <trkpt lat="46.45971" lon="-0.82313">
        <ele>25.60000038147</ele>
        <time>2015-01-12T10:07:15.000Z</time>
      </trkpt>
      <trkpt lat="46.45965" lon="-0.82307">
        <ele>25</ele>
        <time>2015-01-12T10:07:24.000Z</time>
      </trkpt>
      <trkpt lat="46.45962" lon="-0.82313">
        <ele>25</ele>
        <time>2015-01-12T10:09:35.000Z</time>
      </trkpt>
      <trkpt lat="46.45963" lon="-0.82313">
        <ele>25</ele>
        <time>2015-01-12T10:09:45.000Z</time>
      </trkpt>
      <trkpt lat="46.45957" lon="-0.82309">
        <ele>24.60000038147</ele>
        <time>2015-01-12T10:10:53.000Z</time>
      </trkpt>
      <trkpt lat="46.45949" lon="-0.82317">
        <ele>24.39999961853</ele>
        <time>2015-01-12T10:11:00.000Z</time>
      </trkpt>
      <trkpt lat="46.45941" lon="-0.82323">
        <ele>24.200000762939</ele>
        <time>2015-01-12T10:11:07.000Z</time>
      </trkpt>
      <trkpt lat="46.45927" lon="-0.82333">
        <ele>23.60000038147</ele>
        <time>2015-01-12T10:11:18.000Z</time>
      </trkpt>
      <trkpt lat="46.4591" lon="-0.82346">
        <ele>23.200000762939</ele>
        <time>2015-01-12T10:11:30.000Z</time>
      </trkpt>
      <trkpt lat="46.459" lon="-0.82354">
        <ele>22.799999237061</ele>
        <time>2015-01-12T10:11:39.000Z</time>
      </trkpt>
      <trkpt lat="46.45887" lon="-0.82365">
        <ele>22.60000038147</ele>
        <time>2015-01-12T10:11:49.000Z</time>
      </trkpt>
      <trkpt lat="46.45877" lon="-0.82374">
        <ele>22.39999961853</ele>
        <time>2015-01-12T10:11:57.000Z</time>
      </trkpt>
      <trkpt lat="46.45867" lon="-0.82382">
        <ele>22.200000762939</ele>
        <time>2015-01-12T10:12:05.000Z</time>
      </trkpt>
      <trkpt lat="46.45841" lon="-0.82408">
        <ele>22.200000762939</ele>
        <time>2015-01-12T10:12:25.000Z</time>
      </trkpt>
      <trkpt lat="46.4583" lon="-0.82424">
        <ele>22.39999961853</ele>
        <time>2015-01-12T10:12:34.000Z</time>
      </trkpt>
      <trkpt lat="46.45817" lon="-0.82444">
        <ele>22.60000038147</ele>
        <time>2015-01-12T10:12:46.000Z</time>
      </trkpt>
      <trkpt lat="46.45808" lon="-0.82462">
        <ele>23.39999961853</ele>
        <time>2015-01-12T10:12:55.000Z</time>
      </trkpt>
      <trkpt lat="46.45798" lon="-0.82482">
        <ele>23.39999961853</ele>
        <time>2015-01-12T10:13:06.000Z</time>
      </trkpt>
      <trkpt lat="46.45788" lon="-0.82504">
        <ele>22.799999237061</ele>
        <time>2015-01-12T10:13:17.000Z</time>
      </trkpt>
      <trkpt lat="46.45779" lon="-0.82525">
        <ele>22.799999237061</ele>
        <time>2015-01-12T10:13:28.000Z</time>
      </trkpt>
      <trkpt lat="46.45768" lon="-0.82548">
        <ele>22.799999237061</ele>
        <time>2015-01-12T10:13:40.000Z</time>
      </trkpt>
      <trkpt lat="46.4576" lon="-0.82568">
        <ele>22.39999961853</ele>
        <time>2015-01-12T10:13:51.000Z</time>
      </trkpt>
      <trkpt lat="46.45752" lon="-0.82585">
        <ele>21.60000038147</ele>
        <time>2015-01-12T10:14:00.000Z</time>
      </trkpt>
      <trkpt lat="46.45737" lon="-0.82633">
        <ele>20.39999961853</ele>
        <time>2015-01-12T10:14:24.000Z</time>
      </trkpt>
      <trkpt lat="46.45729" lon="-0.82656">
        <ele>20.60000038147</ele>
        <time>2015-01-12T10:14:35.000Z</time>
      </trkpt>
      <trkpt lat="46.45721" lon="-0.82673">
        <ele>20.799999237061</ele>
        <time>2015-01-12T10:14:44.000Z</time>
      </trkpt>
      <trkpt lat="46.45708" lon="-0.82691">
        <ele>20.39999961853</ele>
        <time>2015-01-12T10:14:55.000Z</time>
      </trkpt>
      <trkpt lat="46.45695" lon="-0.82703">
        <ele>19.799999237061</ele>
        <time>2015-01-12T10:15:04.000Z</time>
      </trkpt>
      <trkpt lat="46.45674" lon="-0.82718">
        <ele>18.39999961853</ele>
        <time>2015-01-12T10:15:19.000Z</time>
      </trkpt>
      <trkpt lat="46.45661" lon="-0.82725">
        <ele>17.39999961853</ele>
        <time>2015-01-12T10:15:28.000Z</time>
      </trkpt>
      <trkpt lat="46.45648" lon="-0.82735">
        <ele>16.60000038147</ele>
        <time>2015-01-12T10:15:36.000Z</time>
      </trkpt>
      <trkpt lat="46.45635" lon="-0.82744">
        <ele>15.199999809265</ele>
        <time>2015-01-12T10:15:45.000Z</time>
      </trkpt>
      <trkpt lat="46.4562" lon="-0.82755">
        <ele>13.800000190735</ele>
        <time>2015-01-12T10:15:56.000Z</time>
      </trkpt>
      <trkpt lat="46.45603" lon="-0.82769">
        <ele>12.199999809265</ele>
        <time>2015-01-12T10:16:08.000Z</time>
      </trkpt>
      <trkpt lat="46.4559" lon="-0.82781">
        <ele>11</ele>
        <time>2015-01-12T10:16:18.000Z</time>
      </trkpt>
      <trkpt lat="46.45587" lon="-0.82782">
        <ele>10.800000190735</ele>
        <time>2015-01-12T10:16:20.000Z</time>
      </trkpt>
      <trkpt lat="46.45582" lon="-0.8278">
        <ele>10.60000038147</ele>
        <time>2015-01-12T10:16:26.000Z</time>
      </trkpt>
      <trkpt lat="46.45581" lon="-0.82776">
        <ele>10.60000038147</ele>
        <time>2015-01-12T10:16:35.000Z</time>
      </trkpt>
      <trkpt lat="46.45582" lon="-0.82771">
        <ele>10.800000190735</ele>
        <time>2015-01-12T10:16:56.000Z</time>
      </trkpt>
      <trkpt lat="46.45581" lon="-0.82757">
        <ele>11</ele>
        <time>2015-01-12T10:17:03.000Z</time>
      </trkpt>
      <trkpt lat="46.45579" lon="-0.82742">
        <ele>11.39999961853</ele>
        <time>2015-01-12T10:17:09.000Z</time>
      </trkpt>
      <trkpt lat="46.45577" lon="-0.82721">
        <ele>11.60000038147</ele>
        <time>2015-01-12T10:17:20.000Z</time>
      </trkpt>
      <trkpt lat="46.45575" lon="-0.82703">
        <ele>11.39999961853</ele>
        <time>2015-01-12T10:17:27.000Z</time>
      </trkpt>
      <trkpt lat="46.45573" lon="-0.82685">
        <ele>11.199999809265</ele>
        <time>2015-01-12T10:17:36.000Z</time>
      </trkpt>
      <trkpt lat="46.45571" lon="-0.82658">
        <ele>11.199999809265</ele>
        <time>2015-01-12T10:17:48.000Z</time>
      </trkpt>
      <trkpt lat="46.4557" lon="-0.82635">
        <ele>11.39999961853</ele>
        <time>2015-01-12T10:17:57.000Z</time>
      </trkpt>
      <trkpt lat="46.4557" lon="-0.8261">
        <ele>11.39999961853</ele>
        <time>2015-01-12T10:18:09.000Z</time>
      </trkpt>
      <trkpt lat="46.45572" lon="-0.82592">
        <ele>11.60000038147</ele>
        <time>2015-01-12T10:18:16.000Z</time>
      </trkpt>
      <trkpt lat="46.45575" lon="-0.82564">
        <ele>12</ele>
        <time>2015-01-12T10:18:29.000Z</time>
      </trkpt>
      <trkpt lat="46.45576" lon="-0.82547">
        <ele>12.60000038147</ele>
        <time>2015-01-12T10:18:36.000Z</time>
      </trkpt>
      <trkpt lat="46.4558" lon="-0.82523">
        <ele>13.199999809265</ele>
        <time>2015-01-12T10:18:48.000Z</time>
      </trkpt>
      <trkpt lat="46.45583" lon="-0.82501">
        <ele>13.39999961853</ele>
        <time>2015-01-12T10:18:58.000Z</time>
      </trkpt>
      <trkpt lat="46.45587" lon="-0.82478">
        <ele>13.800000190735</ele>
        <time>2015-01-12T10:19:08.000Z</time>
      </trkpt>
      <trkpt lat="46.45588" lon="-0.82465">
        <ele>13.60000038147</ele>
        <time>2015-01-12T10:19:14.000Z</time>
      </trkpt>
      <trkpt lat="46.45594" lon="-0.82448">
        <ele>13.800000190735</ele>
        <time>2015-01-12T10:19:21.000Z</time>
      </trkpt>
      <trkpt lat="46.45599" lon="-0.82427">
        <ele>14.199999809265</ele>
        <time>2015-01-12T10:19:31.000Z</time>
      </trkpt>
      <trkpt lat="46.45609" lon="-0.82403">
        <ele>15</ele>
        <time>2015-01-12T10:19:44.000Z</time>
      </trkpt>
      <trkpt lat="46.45617" lon="-0.82383">
        <ele>15.39999961853</ele>
        <time>2015-01-12T10:19:54.000Z</time>
      </trkpt>
      <trkpt lat="46.45626" lon="-0.82364">
        <ele>14.800000190735</ele>
        <time>2015-01-12T10:20:03.000Z</time>
      </trkpt>
      <trkpt lat="46.45633" lon="-0.82347">
        <ele>14.39999961853</ele>
        <time>2015-01-12T10:20:13.000Z</time>
      </trkpt>
      <trkpt lat="46.45642" lon="-0.82333">
        <ele>14.60000038147</ele>
        <time>2015-01-12T10:20:20.000Z</time>
      </trkpt>
      <trkpt lat="46.45649" lon="-0.82323">
        <ele>14.800000190735</ele>
        <time>2015-01-12T10:20:26.000Z</time>
      </trkpt>
      <trkpt lat="46.45659" lon="-0.82309">
        <ele>14.39999961853</ele>
        <time>2015-01-12T10:20:35.000Z</time>
      </trkpt>
      <trkpt lat="46.45666" lon="-0.82299">
        <ele>14.199999809265</ele>
        <time>2015-01-12T10:20:41.000Z</time>
      </trkpt>
      <trkpt lat="46.45675" lon="-0.82287">
        <ele>13.800000190735</ele>
        <time>2015-01-12T10:20:49.000Z</time>
      </trkpt>
      <trkpt lat="46.45685" lon="-0.82276">
        <ele>13.800000190735</ele>
        <time>2015-01-12T10:20:56.000Z</time>
      </trkpt>
      <trkpt lat="46.45706" lon="-0.82249">
        <ele>13</ele>
        <time>2015-01-12T10:21:12.000Z</time>
      </trkpt>
      <trkpt lat="46.45719" lon="-0.82232">
        <ele>12.800000190735</ele>
        <time>2015-01-12T10:21:21.000Z</time>
      </trkpt>
      <trkpt lat="46.45731" lon="-0.82217">
        <ele>12.60000038147</ele>
        <time>2015-01-12T10:21:30.000Z</time>
      </trkpt>
      <trkpt lat="46.45741" lon="-0.82202">
        <ele>13</ele>
        <time>2015-01-12T10:21:38.000Z</time>
      </trkpt>
      <trkpt lat="46.45751" lon="-0.82189">
        <ele>13.60000038147</ele>
        <time>2015-01-12T10:21:45.000Z</time>
      </trkpt>
      <trkpt lat="46.45756" lon="-0.82179">
        <ele>13.800000190735</ele>
        <time>2015-01-12T10:21:50.000Z</time>
      </trkpt>
      <trkpt lat="46.45764" lon="-0.82168">
        <ele>14.199999809265</ele>
        <time>2015-01-12T10:21:56.000Z</time>
      </trkpt>
      <trkpt lat="46.45773" lon="-0.82152">
        <ele>14.60000038147</ele>
        <time>2015-01-12T10:22:03.000Z</time>
      </trkpt>
      <trkpt lat="46.45782" lon="-0.82135">
        <ele>14.60000038147</ele>
        <time>2015-01-12T10:22:13.000Z</time>
      </trkpt>
      <trkpt lat="46.45786" lon="-0.82124">
        <ele>14.39999961853</ele>
        <time>2015-01-12T10:22:18.000Z</time>
      </trkpt>
      <trkpt lat="46.45796" lon="-0.82103">
        <ele>14</ele>
        <time>2015-01-12T10:22:29.000Z</time>
      </trkpt>
      <trkpt lat="46.45803" lon="-0.82086">
        <ele>13.60000038147</ele>
        <time>2015-01-12T10:22:37.000Z</time>
      </trkpt>
      <trkpt lat="46.45809" lon="-0.82071">
        <ele>13.199999809265</ele>
        <time>2015-01-12T10:22:44.000Z</time>
      </trkpt>
      <trkpt lat="46.45811" lon="-0.82052">
        <ele>12.39999961853</ele>
        <time>2015-01-12T10:22:51.000Z</time>
      </trkpt>
      <trkpt lat="46.45808" lon="-0.82037">
        <ele>11.39999961853</ele>
        <time>2015-01-12T10:22:58.000Z</time>
      </trkpt>
      <trkpt lat="46.45799" lon="-0.82023">
        <ele>9.8000001907349</ele>
        <time>2015-01-12T10:23:05.000Z</time>
      </trkpt>
      <trkpt lat="46.45777" lon="-0.81996">
        <ele>7.5999999046326</ele>
        <time>2015-01-12T10:23:24.000Z</time>
      </trkpt>
      <trkpt lat="46.45763" lon="-0.81978">
        <ele>7.4000000953674</ele>
        <time>2015-01-12T10:23:35.000Z</time>
      </trkpt>
      <trkpt lat="46.45749" lon="-0.81961">
        <ele>6.8000001907349</ele>
        <time>2015-01-12T10:23:45.000Z</time>
      </trkpt>
      <trkpt lat="46.45735" lon="-0.81944">
        <ele>6</ele>
        <time>2015-01-12T10:23:55.000Z</time>
      </trkpt>
      <trkpt lat="46.45721" lon="-0.81926">
        <ele>5.4000000953674</ele>
        <time>2015-01-12T10:24:05.000Z</time>
      </trkpt>
      <trkpt lat="46.45707" lon="-0.81907">
        <ele>5</ele>
        <time>2015-01-12T10:24:16.000Z</time>
      </trkpt>
      <trkpt lat="46.45697" lon="-0.81892">
        <ele>4.5999999046326</ele>
        <time>2015-01-12T10:24:24.000Z</time>
      </trkpt>
      <trkpt lat="46.45684" lon="-0.81874">
        <ele>4.5999999046326</ele>
        <time>2015-01-12T10:24:33.000Z</time>
      </trkpt>
      <trkpt lat="46.45677" lon="-0.81865">
        <ele>4.5999999046326</ele>
        <time>2015-01-12T10:24:39.000Z</time>
      </trkpt>
      <trkpt lat="46.4567" lon="-0.81854">
        <ele>4.8000001907349</ele>
        <time>2015-01-12T10:24:45.000Z</time>
      </trkpt>
      <trkpt lat="46.45663" lon="-0.81837">
        <ele>4.8000001907349</ele>
        <time>2015-01-12T10:24:53.000Z</time>
      </trkpt>
      <trkpt lat="46.45665" lon="-0.81822">
        <ele>4.8000001907349</ele>
        <time>2015-01-12T10:24:59.000Z</time>
      </trkpt>
      <trkpt lat="46.45672" lon="-0.81807">
        <ele>4.8000001907349</ele>
        <time>2015-01-12T10:25:06.000Z</time>
      </trkpt>
      <trkpt lat="46.45681" lon="-0.81791">
        <ele>4.5999999046326</ele>
        <time>2015-01-12T10:25:14.000Z</time>
      </trkpt>
      <trkpt lat="46.45689" lon="-0.81778">
        <ele>4.5999999046326</ele>
        <time>2015-01-12T10:25:20.000Z</time>
      </trkpt>
      <trkpt lat="46.45702" lon="-0.81757">
        <ele>4.4000000953674</ele>
        <time>2015-01-12T10:25:31.000Z</time>
      </trkpt>
      <trkpt lat="46.45714" lon="-0.81737">
        <ele>4.1999998092651</ele>
        <time>2015-01-12T10:25:41.000Z</time>
      </trkpt>
      <trkpt lat="46.45727" lon="-0.81716">
        <ele>4.1999998092651</ele>
        <time>2015-01-12T10:25:51.000Z</time>
      </trkpt>
      <trkpt lat="46.45735" lon="-0.817">
        <ele>4.5999999046326</ele>
        <time>2015-01-12T10:25:59.000Z</time>
      </trkpt>
      <trkpt lat="46.4575" lon="-0.81675">
        <ele>5</ele>
        <time>2015-01-12T10:26:11.000Z</time>
      </trkpt>
      <trkpt lat="46.45758" lon="-0.81662">
        <ele>5.1999998092651</ele>
        <time>2015-01-12T10:26:18.000Z</time>
      </trkpt>
      <trkpt lat="46.45767" lon="-0.81646">
        <ele>5.4000000953674</ele>
        <time>2015-01-12T10:26:25.000Z</time>
      </trkpt>
      <trkpt lat="46.4578" lon="-0.81625">
        <ele>5.1999998092651</ele>
        <time>2015-01-12T10:26:36.000Z</time>
      </trkpt>
      <trkpt lat="46.4579" lon="-0.81609">
        <ele>5</ele>
        <time>2015-01-12T10:26:44.000Z</time>
      </trkpt>
      <trkpt lat="46.45803" lon="-0.81589">
        <ele>4.5999999046326</ele>
        <time>2015-01-12T10:26:54.000Z</time>
      </trkpt>
      <trkpt lat="46.45812" lon="-0.81574">
        <ele>4.1999998092651</ele>
        <time>2015-01-12T10:27:01.000Z</time>
      </trkpt>
      <trkpt lat="46.45824" lon="-0.81554">
        <ele>4</ele>
        <time>2015-01-12T10:27:11.000Z</time>
      </trkpt>
      <trkpt lat="46.45835" lon="-0.81538">
        <ele>3.7999999523163</ele>
        <time>2015-01-12T10:27:19.000Z</time>
      </trkpt>
      <trkpt lat="46.45845" lon="-0.81524">
        <ele>3.5999999046326</ele>
        <time>2015-01-12T10:27:27.000Z</time>
      </trkpt>
      <trkpt lat="46.45854" lon="-0.81505">
        <ele>3.5999999046326</ele>
        <time>2015-01-12T10:27:35.000Z</time>
      </trkpt>
      <trkpt lat="46.45866" lon="-0.81485">
        <ele>3.4000000953674</ele>
        <time>2015-01-12T10:27:44.000Z</time>
      </trkpt>
      <trkpt lat="46.45879" lon="-0.81463">
        <ele>3.4000000953674</ele>
        <time>2015-01-12T10:27:54.000Z</time>
      </trkpt>
      <trkpt lat="46.4589" lon="-0.81444">
        <ele>3.4000000953674</ele>
        <time>2015-01-12T10:28:03.000Z</time>
      </trkpt>
      <trkpt lat="46.45902" lon="-0.81423">
        <ele>3.5999999046326</ele>
        <time>2015-01-12T10:28:13.000Z</time>
      </trkpt>
      <trkpt lat="46.45914" lon="-0.81403">
        <ele>4</ele>
        <time>2015-01-12T10:28:23.000Z</time>
      </trkpt>
      <trkpt lat="46.45925" lon="-0.81384">
        <ele>4.4000000953674</ele>
        <time>2015-01-12T10:28:32.000Z</time>
      </trkpt>
      <trkpt lat="46.45937" lon="-0.81366">
        <ele>4.4000000953674</ele>
        <time>2015-01-12T10:28:41.000Z</time>
      </trkpt>
      <trkpt lat="46.4595" lon="-0.81345">
        <ele>4.5999999046326</ele>
        <time>2015-01-12T10:28:51.000Z</time>
      </trkpt>
      <trkpt lat="46.45958" lon="-0.81329">
        <ele>4.8000001907349</ele>
        <time>2015-01-12T10:28:58.000Z</time>
      </trkpt>
      <trkpt lat="46.45967" lon="-0.81307">
        <ele>4.8000001907349</ele>
        <time>2015-01-12T10:29:07.000Z</time>
      </trkpt>
      <trkpt lat="46.45976" lon="-0.81286">
        <ele>4.4000000953674</ele>
        <time>2015-01-12T10:29:17.000Z</time>
      </trkpt>
      <trkpt lat="46.45983" lon="-0.81267">
        <ele>4</ele>
        <time>2015-01-12T10:29:25.000Z</time>
      </trkpt>
      <trkpt lat="46.4599" lon="-0.81249">
        <ele>4</ele>
        <time>2015-01-12T10:29:33.000Z</time>
      </trkpt>
      <trkpt lat="46.45998" lon="-0.81229">
        <ele>3.7999999523163</ele>
        <time>2015-01-12T10:29:42.000Z</time>
      </trkpt>
      <trkpt lat="46.46008" lon="-0.81207">
        <ele>4</ele>
        <time>2015-01-12T10:29:51.000Z</time>
      </trkpt>
      <trkpt lat="46.46018" lon="-0.812">
        <ele>4.4000000953674</ele>
        <time>2015-01-12T10:29:59.000Z</time>
      </trkpt>
      <trkpt lat="46.46029" lon="-0.81203">
        <ele>5</ele>
        <time>2015-01-12T10:30:05.000Z</time>
      </trkpt>
      <trkpt lat="46.46047" lon="-0.81208">
        <ele>6</ele>
        <time>2015-01-12T10:30:15.000Z</time>
      </trkpt>
      <trkpt lat="46.46065" lon="-0.8121">
        <ele>6.8000001907349</ele>
        <time>2015-01-12T10:30:25.000Z</time>
      </trkpt>
      <trkpt lat="46.46082" lon="-0.81209">
        <ele>6.8000001907349</ele>
        <time>2015-01-12T10:30:35.000Z</time>
      </trkpt>
      <trkpt lat="46.46093" lon="-0.81203">
        <ele>6.8000001907349</ele>
        <time>2015-01-12T10:30:42.000Z</time>
      </trkpt>
      <trkpt lat="46.46101" lon="-0.81186">
        <ele>6.5999999046326</ele>
        <time>2015-01-12T10:30:50.000Z</time>
      </trkpt>
      <trkpt lat="46.46111" lon="-0.81184">
        <ele>6.5999999046326</ele>
        <time>2015-01-12T10:30:56.000Z</time>
      </trkpt>
      <trkpt lat="46.46125" lon="-0.81191">
        <ele>7</ele>
        <time>2015-01-12T10:31:03.000Z</time>
      </trkpt>
      <trkpt lat="46.46145" lon="-0.81195">
        <ele>7.4000000953674</ele>
        <time>2015-01-12T10:31:13.000Z</time>
      </trkpt>
      <trkpt lat="46.46172" lon="-0.81197">
        <ele>7.5999999046326</ele>
        <time>2015-01-12T10:31:29.000Z</time>
      </trkpt>
      <trkpt lat="46.46181" lon="-0.81179">
        <ele>7.4000000953674</ele>
        <time>2015-01-12T10:31:37.000Z</time>
      </trkpt>
      <trkpt lat="46.46192" lon="-0.81157">
        <ele>7</ele>
        <time>2015-01-12T10:31:47.000Z</time>
      </trkpt>
      <trkpt lat="46.46203" lon="-0.81135">
        <ele>6.5999999046326</ele>
        <time>2015-01-12T10:31:57.000Z</time>
      </trkpt>
      <trkpt lat="46.46206" lon="-0.81131">
        <ele>6.5999999046326</ele>
        <time>2015-01-12T10:32:01.000Z</time>
      </trkpt>
    </trkseg>
  </trk>
</gpx>